Wetterdaten: Samstag, 21.03.2026
Datum Zeit Temp. Aussen Temp. o. S. Temp +5cm Feuchte Auss Luftdruck Regen Sonnenschein Solar Windböen Empfang
21.03.2026 00:00 7,9 °C 6,7 °C 3,3 °C 82 % 1019,1 hPa 0,0 l/m² 0 min 0 W/m² 12,9 km/h (3 Bft) 97,87 %
21.03.2026 00:02 7,8 °C 6,7 °C 3,3 °C 82 % 1019,1 hPa 0,0 l/m² 0 min 0 W/m² 3,2 km/h (1 Bft) 97,37 %
21.03.2026 00:04 7,8 °C 6,7 °C 3,3 °C 82 % 1019,0 hPa 0,0 l/m² 0 min 0 W/m² 6,4 km/h (2 Bft) 97,92 %
21.03.2026 00:07 7,8 °C 6,7 °C 3,3 °C 82 % 1019,1 hPa 0,0 l/m² 0 min 0 W/m² 6,4 km/h (2 Bft) 97,92 %
21.03.2026 00:08 7,8 °C 6,7 °C 3,3 °C 82 % 1019,1 hPa 0,0 l/m² 0 min 0 W/m² 6,4 km/h (2 Bft) 97,89 %
21.03.2026 00:14 7,7 °C 6,7 °C 3,3 °C 82 % 1019,0 hPa 0,0 l/m² 0 min 0 W/m² 3,2 km/h (1 Bft) 98,06 %
21.03.2026 00:16 7,7 °C 6,7 °C 3,3 °C 82 % 1019,0 hPa 0,0 l/m² 0 min 0 W/m² 9,7 km/h (2 Bft) 55,56 %
21.03.2026 00:18 7,7 °C 6,7 °C 3,3 °C 82 % 1019,0 hPa 0,0 l/m² 0 min 0 W/m² 6,4 km/h (2 Bft) 100,00 %
21.03.2026 00:20 7,7 °C 6,7 °C 3,3 °C 82 % 1018,9 hPa 0,0 l/m² 0 min 0 W/m² 6,4 km/h (2 Bft) 100,00 %
21.03.2026 00:22 7,7 °C 6,7 °C 3,3 °C 82 % 1018,8 hPa 0,0 l/m² 0 min 0 W/m² 3,2 km/h (1 Bft) 100,00 %
21.03.2026 00:24 7,7 °C 6,7 °C 3,3 °C 82 % 1018,9 hPa 0,0 l/m² 0 min 0 W/m² 9,7 km/h (2 Bft) 93,62 %
21.03.2026 00:26 7,6 °C 6,7 °C 3,3 °C 82 % 1018,8 hPa 0,0 l/m² 0 min 0 W/m² 3,2 km/h (1 Bft) 100,00 %
21.03.2026 00:31 7,6 °C 6,7 °C 2,8 °C 82 % 1018,8 hPa 0,0 l/m² 0 min 0 W/m² 9,7 km/h (2 Bft) 96,83 %
21.03.2026 00:32 7,6 °C 6,7 °C 2,8 °C 82 % 1018,8 hPa 0,0 l/m² 0 min 0 W/m² 6,4 km/h (2 Bft) 95,65 %
21.03.2026 00:34 7,6 °C 6,7 °C 2,8 °C 82 % 1018,8 hPa 0,0 l/m² 0 min 0 W/m² 6,4 km/h (2 Bft) 97,87 %
21.03.2026 00:36 7,6 °C 6,7 °C 2,8 °C 83 % 1018,8 hPa 0,0 l/m² 0 min 0 W/m² 9,7 km/h (2 Bft) 97,87 %
21.03.2026 00:38 7,5 °C 6,1 °C 2,8 °C 83 % 1018,8 hPa 0,0 l/m² 0 min 0 W/m² 6,4 km/h (2 Bft) 97,87 %
21.03.2026 00:40 7,5 °C 6,1 °C 2,8 °C 83 % 1018,7 hPa 0,0 l/m² 0 min 0 W/m² 6,4 km/h (2 Bft) 97,87 %
21.03.2026 00:42 7,5 °C 6,1 °C 2,8 °C 83 % 1018,7 hPa 0,0 l/m² 0 min 0 W/m² 9,7 km/h (2 Bft) 97,87 %
21.03.2026 00:44 7,4 °C 6,1 °C 2,8 °C 82 % 1018,7 hPa 0,0 l/m² 0 min 0 W/m² 6,4 km/h (2 Bft) 95,65 %
21.03.2026 00:46 7,4 °C 6,1 °C 2,8 °C 82 % 1018,6 hPa 0,0 l/m² 0 min 0 W/m² 3,2 km/h (1 Bft) 97,87 %
21.03.2026 00:48 7,4 °C 6,1 °C 2,8 °C 83 % 1018,7 hPa 0,0 l/m² 0 min 0 W/m² 6,4 km/h (2 Bft) 95,74 %
21.03.2026 00:50 7,4 °C 6,1 °C 2,8 °C 83 % 1018,7 hPa 0,0 l/m² 0 min 0 W/m² 6,4 km/h (2 Bft) 93,62 %
21.03.2026 00:52 7,4 °C 6,1 °C 2,8 °C 83 % 1018,7 hPa 0,0 l/m² 0 min 0 W/m² 6,4 km/h (2 Bft) 97,87 %
21.03.2026 00:54 7,3 °C 6,1 °C 2,8 °C 83 % 1018,7 hPa 0,0 l/m² 0 min 0 W/m² 6,4 km/h (2 Bft) 97,87 %
21.03.2026 00:56 7,3 °C 6,1 °C 2,8 °C 83 % 1018,7 hPa 0,0 l/m² 0 min 0 W/m² 6,4 km/h (2 Bft) 95,65 %
21.03.2026 00:58 7,3 °C 6,1 °C 2,8 °C 83 % 1018,7 hPa 0,0 l/m² 0 min 0 W/m² 6,4 km/h (2 Bft) 97,87 %
21.03.2026 01:00 7,3 °C 6,1 °C 2,8 °C 83 % 1018,7 hPa 0,0 l/m² 0 min 0 W/m² 6,4 km/h (2 Bft) 97,87 %
21.03.2026 01:02 7,3 °C 6,1 °C 2,8 °C 83 % 1018,7 hPa 0,0 l/m² 0 min 0 W/m² 3,2 km/h (1 Bft) 97,87 %
21.03.2026 01:04 7,3 °C 6,1 °C 2,8 °C 83 % 1018,6 hPa 0,0 l/m² 0 min 0 W/m² 3,2 km/h (1 Bft) 95,74 %
21.03.2026 01:06 7,2 °C 6,1 °C 2,8 °C 83 % 1018,6 hPa 0,0 l/m² 0 min 0 W/m² 6,4 km/h (2 Bft) 93,75 %
21.03.2026 01:08 7,2 °C 6,1 °C 2,8 °C 83 % 1018,7 hPa 0,0 l/m² 0 min 0 W/m² 0,0 km/h (0 Bft) 93,62 %
21.03.2026 01:10 7,2 °C 6,1 °C 2,2 °C 83 % 1018,6 hPa 0,0 l/m² 0 min 0 W/m² 3,2 km/h (1 Bft) 93,62 %
21.03.2026 01:12 7,2 °C 6,1 °C 2,2 °C 83 % 1018,6 hPa 0,0 l/m² 0 min 0 W/m² 6,4 km/h (2 Bft) 93,62 %
21.03.2026 01:14 7,2 °C 6,1 °C 2,2 °C 83 % 1018,6 hPa 0,0 l/m² 0 min 0 W/m² 6,4 km/h (2 Bft) 95,74 %
21.03.2026 01:16 7,1 °C 5,6 °C 2,2 °C 83 % 1018,6 hPa 0,0 l/m² 0 min 0 W/m² 3,2 km/h (1 Bft) 95,74 %
21.03.2026 01:18 7,1 °C 6,1 °C 2,2 °C 83 % 1018,6 hPa 0,0 l/m² 0 min 0 W/m² 6,4 km/h (2 Bft) 95,65 %
21.03.2026 01:20 7,1 °C 6,1 °C 2,2 °C 83 % 1018,6 hPa 0,0 l/m² 0 min 0 W/m² 6,4 km/h (2 Bft) 97,87 %
21.03.2026 01:22 7,1 °C 6,1 °C 2,2 °C 83 % 1018,6 hPa 0,0 l/m² 0 min 0 W/m² 6,4 km/h (2 Bft) 97,87 %
21.03.2026 01:24 7,1 °C 6,1 °C 2,2 °C 83 % 1018,6 hPa 0,0 l/m² 0 min 0 W/m² 12,9 km/h (3 Bft) 97,87 %
21.03.2026 01:26 7,0 °C 5,6 °C 2,2 °C 83 % 1018,6 hPa 0,0 l/m² 0 min 0 W/m² 6,4 km/h (2 Bft) 97,87 %
21.03.2026 01:28 7,0 °C 5,6 °C 2,2 °C 83 % 1018,6 hPa 0,0 l/m² 0 min 0 W/m² 9,7 km/h (2 Bft) 97,87 %
21.03.2026 01:30 7,0 °C 5,6 °C 2,2 °C 83 % 1018,6 hPa 0,0 l/m² 0 min 0 W/m² 3,2 km/h (1 Bft) 95,74 %
21.03.2026 01:32 6,9 °C 5,6 °C 2,2 °C 83 % 1018,6 hPa 0,0 l/m² 0 min 0 W/m² 0,0 km/h (0 Bft) 97,83 %
21.03.2026 01:34 6,9 °C 5,6 °C 2,2 °C 83 % 1018,5 hPa 0,0 l/m² 0 min 0 W/m² 3,2 km/h (1 Bft) 100,00 %
21.03.2026 01:36 6,9 °C 5,6 °C 2,2 °C 83 % 1018,6 hPa 0,0 l/m² 0 min 0 W/m² 6,4 km/h (2 Bft) 97,87 %
21.03.2026 01:38 6,9 °C 5,6 °C 2,2 °C 84 % 1018,5 hPa 0,0 l/m² 0 min 0 W/m² 3,2 km/h (1 Bft) 97,87 %
21.03.2026 01:40 6,9 °C 5,6 °C 2,2 °C 84 % 1018,6 hPa 0,0 l/m² 0 min 0 W/m² 3,2 km/h (1 Bft) 100,00 %
21.03.2026 01:42 6,8 °C 5,6 °C 2,2 °C 84 % 1018,5 hPa 0,0 l/m² 0 min 0 W/m² 3,2 km/h (1 Bft) 100,00 %
21.03.2026 01:44 6,8 °C 5,6 °C 2,2 °C 83 % 1018,5 hPa 0,0 l/m² 0 min 0 W/m² 3,2 km/h (1 Bft) 100,00 %
21.03.2026 01:46 6,8 °C 5,6 °C 2,2 °C 83 % 1018,6 hPa 0,0 l/m² 0 min 0 W/m² 3,2 km/h (1 Bft) 97,87 %
21.03.2026 01:48 6,8 °C 5,6 °C 2,2 °C 83 % 1018,5 hPa 0,0 l/m² 0 min 0 W/m² 3,2 km/h (1 Bft) 97,87 %
21.03.2026 01:50 6,8 °C 5,6 °C 2,2 °C 83 % 1018,5 hPa 0,0 l/m² 0 min 0 W/m² 3,2 km/h (1 Bft) 100,00 %
21.03.2026 01:52 6,8 °C 5,6 °C 2,2 °C 83 % 1018,5 hPa 0,0 l/m² 0 min 0 W/m² 0,0 km/h (0 Bft) 97,87 %
21.03.2026 01:54 6,8 °C 5,6 °C 2,2 °C 83 % 1018,6 hPa 0,0 l/m² 0 min 0 W/m² 0,0 km/h (0 Bft) 97,83 %
21.03.2026 01:56 6,7 °C 5,6 °C 2,2 °C 83 % 1018,6 hPa 0,0 l/m² 0 min 0 W/m² 9,7 km/h (2 Bft) 97,87 %
21.03.2026 01:58 6,7 °C 5,6 °C 2,2 °C 83 % 1018,6 hPa 0,0 l/m² 0 min 0 W/m² 0,0 km/h (0 Bft) 97,87 %
21.03.2026 02:00 6,7 °C 5,6 °C 2,2 °C 84 % 1018,6 hPa 0,0 l/m² 0 min 0 W/m² 0,0 km/h (0 Bft) 97,87 %
21.03.2026 02:02 6,7 °C 5,6 °C 2,2 °C 84 % 1018,6 hPa 0,0 l/m² 0 min 0 W/m² 0,0 km/h (0 Bft) 97,87 %
21.03.2026 02:04 6,7 °C 5,6 °C 2,2 °C 84 % 1018,6 hPa 0,0 l/m² 0 min 0 W/m² 0,0 km/h (0 Bft) 95,74 %
21.03.2026 02:06 6,6 °C 5,6 °C 1,7 °C 84 % 1018,6 hPa 0,0 l/m² 0 min 0 W/m² 3,2 km/h (1 Bft) 97,83 %
21.03.2026 02:08 6,6 °C 5,0 °C 1,7 °C 84 % 1018,6 hPa 0,0 l/m² 0 min 0 W/m² 3,2 km/h (1 Bft) 97,92 %
21.03.2026 02:10 6,6 °C 5,0 °C 1,7 °C 84 % 1018,6 hPa 0,0 l/m² 0 min 0 W/m² 3,2 km/h (1 Bft) 97,87 %
21.03.2026 02:17 6,5 °C 5,0 °C 1,7 °C 84 % 1018,6 hPa 0,0 l/m² 0 min 0 W/m² 3,2 km/h (1 Bft) 95,65 %
21.03.2026 02:18 6,5 °C 5,0 °C 1,7 °C 84 % 1018,6 hPa 0,0 l/m² 0 min 0 W/m² 0,0 km/h (0 Bft) 100,00 %
21.03.2026 02:20 6,5 °C 5,0 °C 1,7 °C 84 % 1018,6 hPa 0,0 l/m² 0 min 0 W/m² 6,4 km/h (2 Bft) 93,62 %
21.03.2026 02:22 6,5 °C 5,0 °C 1,7 °C 84 % 1018,6 hPa 0,0 l/m² 0 min 0 W/m² 0,0 km/h (0 Bft) 97,87 %
21.03.2026 02:24 6,4 °C 5,0 °C 1,7 °C 84 % 1018,6 hPa 0,0 l/m² 0 min 0 W/m² 0,0 km/h (0 Bft) 97,87 %
21.03.2026 02:26 6,4 °C 5,0 °C 1,7 °C 84 % 1018,6 hPa 0,0 l/m² 0 min 0 W/m² 3,2 km/h (1 Bft) 100,00 %
21.03.2026 02:28 6,3 °C 5,0 °C 1,7 °C 84 % 1018,6 hPa 0,0 l/m² 0 min 0 W/m² 6,4 km/h (2 Bft) 100,00 %
21.03.2026 02:30 6,3 °C 5,0 °C 1,7 °C 84 % 1018,6 hPa 0,0 l/m² 0 min 0 W/m² 0,0 km/h (0 Bft) 100,00 %
21.03.2026 02:32 6,3 °C 5,0 °C 1,7 °C 84 % 1018,6 hPa 0,0 l/m² 0 min 0 W/m² 0,0 km/h (0 Bft) 48,72 %
21.03.2026 02:34 6,3 °C 5,0 °C 1,7 °C 84 % 1018,5 hPa 0,0 l/m² 0 min 0 W/m² 3,2 km/h (1 Bft) 100,00 %
21.03.2026 02:36 6,3 °C 5,0 °C 1,7 °C 84 % 1018,5 hPa 0,0 l/m² 0 min 0 W/m² 0,0 km/h (0 Bft) 100,00 %
21.03.2026 02:38 6,2 °C 5,0 °C 1,7 °C 84 % 1018,5 hPa 0,0 l/m² 0 min 0 W/m² 3,2 km/h (1 Bft) 100,00 %
21.03.2026 02:40 6,2 °C 5,0 °C 1,7 °C 84 % 1018,5 hPa 0,0 l/m² 0 min 0 W/m² 3,2 km/h (1 Bft) 100,00 %
21.03.2026 02:42 6,2 °C 5,0 °C 1,7 °C 84 % 1018,5 hPa 0,0 l/m² 0 min 0 W/m² 3,2 km/h (1 Bft) 97,87 %
21.03.2026 02:44 6,2 °C 5,0 °C 1,7 °C 84 % 1018,5 hPa 0,0 l/m² 0 min 0 W/m² 3,2 km/h (1 Bft) 97,87 %
21.03.2026 02:46 6,1 °C 5,0 °C 1,7 °C 84 % 1018,5 hPa 0,0 l/m² 0 min 0 W/m² 3,2 km/h (1 Bft) 97,87 %
21.03.2026 02:48 6,1 °C 5,0 °C 1,7 °C 85 % 1018,4 hPa 0,0 l/m² 0 min 0 W/m² 3,2 km/h (1 Bft) 97,87 %
21.03.2026 02:50 6,1 °C 5,0 °C 1,7 °C 85 % 1018,5 hPa 0,0 l/m² 0 min 0 W/m² 0,0 km/h (0 Bft) 97,87 %
21.03.2026 02:52 6,1 °C 5,0 °C 1,7 °C 85 % 1018,4 hPa 0,0 l/m² 0 min 0 W/m² 0,0 km/h (0 Bft) 97,83 %
21.03.2026 02:54 6,1 °C 5,0 °C 1,7 °C 85 % 1018,4 hPa 0,0 l/m² 0 min 0 W/m² 0,0 km/h (0 Bft) 97,87 %
21.03.2026 02:56 6,1 °C 4,4 °C 1,7 °C 85 % 1018,4 hPa 0,0 l/m² 0 min 0 W/m² 0,0 km/h (0 Bft) 95,74 %
21.03.2026 02:58 6,1 °C 4,4 °C 1,7 °C 85 % 1018,4 hPa 0,0 l/m² 0 min 0 W/m² 0,0 km/h (0 Bft) 97,87 %
21.03.2026 03:00 6,0 °C 4,4 °C 1,1 °C 85 % 1018,4 hPa 0,0 l/m² 0 min 0 W/m² 0,0 km/h (0 Bft) 93,62 %
21.03.2026 03:02 6,0 °C 4,4 °C 1,1 °C 85 % 1018,4 hPa 0,0 l/m² 0 min 0 W/m² 0,0 km/h (0 Bft) 97,87 %
21.03.2026 03:04 6,0 °C 4,4 °C 1,1 °C 85 % 1018,4 hPa 0,0 l/m² 0 min 0 W/m² 0,0 km/h (0 Bft) 93,75 %
21.03.2026 03:06 5,9 °C 4,4 °C 1,1 °C 85 % 1018,4 hPa 0,0 l/m² 0 min 0 W/m² 0,0 km/h (0 Bft) 97,87 %
21.03.2026 03:08 5,9 °C 4,4 °C 1,1 °C 85 % 1018,5 hPa 0,0 l/m² 0 min 0 W/m² 3,2 km/h (1 Bft) 97,92 %
21.03.2026 03:10 5,9 °C 4,4 °C 1,1 °C 85 % 1018,5 hPa 0,0 l/m² 0 min 0 W/m² 0,0 km/h (0 Bft) 97,83 %
21.03.2026 03:12 5,9 °C 4,4 °C 1,1 °C 85 % 1018,5 hPa 0,0 l/m² 0 min 0 W/m² 0,0 km/h (0 Bft) 100,00 %
21.03.2026 03:14 5,8 °C 4,4 °C 1,1 °C 85 % 1018,5 hPa 0,0 l/m² 0 min 0 W/m² 0,0 km/h (0 Bft) 100,00 %
21.03.2026 03:16 5,8 °C 4,4 °C 1,1 °C 85 % 1018,4 hPa 0,0 l/m² 0 min 0 W/m² 0,0 km/h (0 Bft) 100,00 %
21.03.2026 03:18 5,8 °C 4,4 °C 1,1 °C 85 % 1018,5 hPa 0,0 l/m² 0 min 0 W/m² 0,0 km/h (0 Bft) 100,00 %
21.03.2026 03:20 5,8 °C 4,4 °C 1,1 °C 85 % 1018,4 hPa 0,0 l/m² 0 min 0 W/m² 0,0 km/h (0 Bft) 100,00 %
21.03.2026 03:22 5,8 °C 4,4 °C 1,1 °C 85 % 1018,4 hPa 0,0 l/m² 0 min 0 W/m² 0,0 km/h (0 Bft) 97,83 %
21.03.2026 03:24 5,8 °C 4,4 °C 1,1 °C 85 % 1018,5 hPa 0,0 l/m² 0 min 0 W/m² 0,0 km/h (0 Bft) 100,00 %
21.03.2026 03:26 5,8 °C 4,4 °C 1,1 °C 85 % 1018,4 hPa 0,0 l/m² 0 min 0 W/m² 0,0 km/h (0 Bft) 100,00 %
21.03.2026 03:28 5,7 °C 4,4 °C 1,1 °C 85 % 1018,4 hPa 0,0 l/m² 0 min 0 W/m² 0,0 km/h (0 Bft) 100,00 %
21.03.2026 03:30 5,7 °C 4,4 °C 1,1 °C 85 % 1018,4 hPa 0,0 l/m² 0 min 0 W/m² 0,0 km/h (0 Bft) 97,87 %
21.03.2026 03:32 5,7 °C 4,4 °C 1,1 °C 85 % 1018,4 hPa 0,0 l/m² 0 min 0 W/m² 0,0 km/h (0 Bft) 100,00 %
21.03.2026 03:34 5,7 °C 4,4 °C 1,1 °C 85 % 1018,4 hPa 0,0 l/m² 0 min 0 W/m² 0,0 km/h (0 Bft) 100,00 %
21.03.2026 03:36 5,6 °C 4,4 °C 1,1 °C 85 % 1018,4 hPa 0,0 l/m² 0 min 0 W/m² 0,0 km/h (0 Bft) 97,87 %
21.03.2026 03:38 5,6 °C 4,4 °C 1,1 °C 85 % 1018,4 hPa 0,0 l/m² 0 min 0 W/m² 0,0 km/h (0 Bft) 100,00 %
21.03.2026 03:40 5,6 °C 4,4 °C 1,1 °C 85 % 1018,4 hPa 0,0 l/m² 0 min 0 W/m² 0,0 km/h (0 Bft) 100,00 %
21.03.2026 03:42 5,6 °C 4,4 °C 1,1 °C 85 % 1018,3 hPa 0,0 l/m² 0 min 0 W/m² 0,0 km/h (0 Bft) 97,87 %
21.03.2026 03:44 5,6 °C 4,4 °C 1,1 °C 85 % 1018,4 hPa 0,0 l/m² 0 min 0 W/m² 0,0 km/h (0 Bft) 100,00 %
21.03.2026 03:46 5,6 °C 4,4 °C 1,1 °C 85 % 1018,3 hPa 0,0 l/m² 0 min 0 W/m² 0,0 km/h (0 Bft) 95,74 %
21.03.2026 03:48 5,6 °C 4,4 °C 1,1 °C 85 % 1018,4 hPa 0,0 l/m² 0 min 0 W/m² 0,0 km/h (0 Bft) 95,74 %
21.03.2026 03:50 5,5 °C 4,4 °C 1,1 °C 85 % 1018,4 hPa 0,0 l/m² 0 min 0 W/m² 0,0 km/h (0 Bft) 95,74 %
21.03.2026 03:52 5,5 °C 3,9 °C 1,1 °C 85 % 1018,4 hPa 0,0 l/m² 0 min 0 W/m² 0,0 km/h (0 Bft) 95,65 %
21.03.2026 03:54 5,5 °C 3,9 °C 1,1 °C 85 % 1018,3 hPa 0,0 l/m² 0 min 0 W/m² 0,0 km/h (0 Bft) 93,62 %
21.03.2026 03:56 5,4 °C 3,9 °C 0,6 °C 85 % 1018,3 hPa 0,0 l/m² 0 min 0 W/m² 0,0 km/h (0 Bft) 94,29 %
21.03.2026 03:58 5,4 °C 3,9 °C 0,6 °C 85 % 1018,3 hPa 0,0 l/m² 0 min 0 W/m² 0,0 km/h (0 Bft) 95,74 %
21.03.2026 04:00 5,4 °C 3,9 °C 0,6 °C 85 % 1018,3 hPa 0,0 l/m² 0 min 0 W/m² 0,0 km/h (0 Bft) 96,36 %
21.03.2026 04:02 5,4 °C 3,9 °C 0,6 °C 85 % 1018,3 hPa 0,0 l/m² 0 min 0 W/m² 0,0 km/h (0 Bft) 94,00 %
21.03.2026 04:04 5,4 °C 3,9 °C 0,6 °C 85 % 1018,3 hPa 0,0 l/m² 0 min 0 W/m² 0,0 km/h (0 Bft) 95,74 %
21.03.2026 04:06 5,3 °C 3,9 °C 0,6 °C 85 % 1018,3 hPa 0,0 l/m² 0 min 0 W/m² 0,0 km/h (0 Bft) 95,74 %
21.03.2026 04:08 5,3 °C 3,9 °C 0,6 °C 85 % 1018,2 hPa 0,0 l/m² 0 min 0 W/m² 0,0 km/h (0 Bft) 93,75 %
21.03.2026 04:10 5,3 °C 3,9 °C 0,6 °C 85 % 1018,2 hPa 0,0 l/m² 0 min 0 W/m² 0,0 km/h (0 Bft) 93,62 %
21.03.2026 04:12 5,3 °C 3,9 °C 0,6 °C 85 % 1018,2 hPa 0,0 l/m² 0 min 0 W/m² 0,0 km/h (0 Bft) 93,48 %
21.03.2026 04:14 5,3 °C 3,9 °C 0,6 °C 85 % 1018,2 hPa 0,0 l/m² 0 min 0 W/m² 0,0 km/h (0 Bft) 95,74 %
21.03.2026 04:16 5,2 °C 3,9 °C 0,6 °C 85 % 1018,2 hPa 0,0 l/m² 0 min 0 W/m² 0,0 km/h (0 Bft) 95,74 %
21.03.2026 04:18 5,2 °C 3,9 °C 0,6 °C 85 % 1018,2 hPa 0,0 l/m² 0 min 0 W/m² 0,0 km/h (0 Bft) 97,14 %
21.03.2026 04:20 5,2 °C 3,9 °C 0,6 °C 86 % 1018,2 hPa 0,0 l/m² 0 min 0 W/m² 0,0 km/h (0 Bft) 94,64 %
21.03.2026 04:22 5,2 °C 3,9 °C 0,6 °C 86 % 1018,1 hPa 0,0 l/m² 0 min 0 W/m² 0,0 km/h (0 Bft) 95,92 %
21.03.2026 04:24 5,1 °C 3,9 °C 0,6 °C 86 % 1018,2 hPa 0,0 l/m² 0 min 0 W/m² 0,0 km/h (0 Bft) 95,74 %
21.03.2026 04:26 5,1 °C 3,9 °C 0,6 °C 86 % 1018,2 hPa 0,0 l/m² 0 min 0 W/m² 0,0 km/h (0 Bft) 95,74 %
21.03.2026 04:28 5,1 °C 3,3 °C 0,6 °C 86 % 1018,2 hPa 0,0 l/m² 0 min 0 W/m² 0,0 km/h (0 Bft) 95,74 %
21.03.2026 04:30 5,1 °C 3,3 °C 0,6 °C 86 % 1018,2 hPa 0,0 l/m² 0 min 0 W/m² 0,0 km/h (0 Bft) 37,50 %
21.03.2026 04:32 5,0 °C 3,3 °C 0,6 °C 86 % 1018,2 hPa 0,0 l/m² 0 min 0 W/m² 0,0 km/h (0 Bft) 95,74 %
21.03.2026 04:34 5,0 °C 3,3 °C 0,0 °C 86 % 1018,2 hPa 0,0 l/m² 0 min 0 W/m² 0,0 km/h (0 Bft) 95,74 %
21.03.2026 04:36 5,0 °C 3,3 °C 0,0 °C 86 % 1018,3 hPa 0,0 l/m² 0 min 0 W/m² 0,0 km/h (0 Bft) 97,87 %
21.03.2026 04:38 4,9 °C 3,3 °C 0,0 °C 86 % 1018,3 hPa 0,0 l/m² 0 min 0 W/m² 0,0 km/h (0 Bft) 92,73 %
21.03.2026 04:40 4,9 °C 3,3 °C 0,0 °C 86 % 1018,2 hPa 0,0 l/m² 0 min 0 W/m² 0,0 km/h (0 Bft) 95,74 %
21.03.2026 04:42 4,9 °C 3,3 °C 0,0 °C 86 % 1018,3 hPa 0,0 l/m² 0 min 0 W/m² 0,0 km/h (0 Bft) 96,00 %
21.03.2026 04:44 4,9 °C 3,3 °C 0,0 °C 86 % 1018,3 hPa 0,0 l/m² 0 min 0 W/m² 0,0 km/h (0 Bft) 95,74 %
21.03.2026 04:46 4,9 °C 3,3 °C 0,0 °C 86 % 1018,4 hPa 0,0 l/m² 0 min 0 W/m² 0,0 km/h (0 Bft) 95,74 %
21.03.2026 04:48 4,8 °C 3,3 °C 0,0 °C 86 % 1018,3 hPa 0,0 l/m² 0 min 0 W/m² 0,0 km/h (0 Bft) 95,65 %
21.03.2026 04:50 4,8 °C 3,3 °C 0,0 °C 86 % 1018,3 hPa 0,0 l/m² 0 min 0 W/m² 0,0 km/h (0 Bft) 97,87 %
21.03.2026 04:52 4,8 °C 3,3 °C 0,0 °C 86 % 1018,4 hPa 0,0 l/m² 0 min 0 W/m² 0,0 km/h (0 Bft) 97,87 %
21.03.2026 04:54 4,8 °C 3,3 °C 0,0 °C 86 % 1018,4 hPa 0,0 l/m² 0 min 0 W/m² 0,0 km/h (0 Bft) 100,00 %
21.03.2026 04:56 4,7 °C 3,3 °C 0,0 °C 86 % 1018,5 hPa 0,0 l/m² 0 min 0 W/m² 0,0 km/h (0 Bft) 98,18 %
21.03.2026 04:58 4,7 °C 3,3 °C 0,0 °C 86 % 1018,4 hPa 0,0 l/m² 0 min 0 W/m² 0,0 km/h (0 Bft) 100,00 %
21.03.2026 05:00 4,7 °C 3,3 °C 0,0 °C 86 % 1018,4 hPa 0,0 l/m² 0 min 0 W/m² 0,0 km/h (0 Bft) 100,00 %
21.03.2026 05:02 4,7 °C 3,3 °C 0,0 °C 86 % 1018,4 hPa 0,0 l/m² 0 min 0 W/m² 0,0 km/h (0 Bft) 97,87 %
21.03.2026 05:04 4,7 °C 3,3 °C 0,0 °C 86 % 1018,3 hPa 0,0 l/m² 0 min 0 W/m² 0,0 km/h (0 Bft) 100,00 %
21.03.2026 05:06 4,6 °C 3,3 °C 0,0 °C 86 % 1018,3 hPa 0,0 l/m² 0 min 0 W/m² 0,0 km/h (0 Bft) 97,87 %
21.03.2026 05:08 4,6 °C 3,3 °C 0,0 °C 87 % 1018,3 hPa 0,0 l/m² 0 min 0 W/m² 0,0 km/h (0 Bft) 100,00 %
21.03.2026 05:10 4,6 °C 3,3 °C 0,0 °C 87 % 1018,3 hPa 0,0 l/m² 0 min 0 W/m² 0,0 km/h (0 Bft) 100,00 %
21.03.2026 05:12 4,6 °C 3,3 °C 0,0 °C 87 % 1018,3 hPa 0,0 l/m² 0 min 0 W/m² 0,0 km/h (0 Bft) 95,74 %
21.03.2026 05:14 4,6 °C 3,3 °C 0,0 °C 87 % 1018,4 hPa 0,0 l/m² 0 min 0 W/m² 0,0 km/h (0 Bft) 97,22 %
21.03.2026 05:16 4,6 °C 3,3 °C 0,0 °C 87 % 1018,3 hPa 0,0 l/m² 0 min 0 W/m² 0,0 km/h (0 Bft) 100,00 %
21.03.2026 05:18 4,6 °C 3,3 °C 0,0 °C 87 % 1018,3 hPa 0,0 l/m² 0 min 0 W/m² 0,0 km/h (0 Bft) 100,00 %
21.03.2026 05:20 4,6 °C 3,3 °C 0,0 °C 87 % 1018,2 hPa 0,0 l/m² 0 min 0 W/m² 0,0 km/h (0 Bft) 100,00 %
21.03.2026 05:22 4,6 °C 3,3 °C 0,0 °C 87 % 1018,3 hPa 0,0 l/m² 0 min 0 W/m² 0,0 km/h (0 Bft) 97,87 %
21.03.2026 05:24 4,6 °C 3,3 °C 0,6 °C 87 % 1018,3 hPa 0,0 l/m² 0 min 0 W/m² 0,0 km/h (0 Bft) 100,00 %
21.03.2026 05:26 4,5 °C 3,9 °C 0,6 °C 87 % 1018,3 hPa 0,0 l/m² 0 min 0 W/m² 0,0 km/h (0 Bft) 100,00 %
21.03.2026 05:28 4,6 °C 3,9 °C 0,6 °C 87 % 1018,3 hPa 0,0 l/m² 0 min 0 W/m² 3,2 km/h (1 Bft) 98,15 %
21.03.2026 05:30 4,5 °C 3,9 °C 0,6 °C 87 % 1018,2 hPa 0,0 l/m² 0 min 0 W/m² 3,2 km/h (1 Bft) 100,00 %
21.03.2026 05:32 4,5 °C 3,9 °C 0,6 °C 87 % 1018,2 hPa 0,0 l/m² 0 min 0 W/m² 0,0 km/h (0 Bft) 100,00 %
21.03.2026 05:34 4,5 °C 3,9 °C 0,6 °C 87 % 1018,2 hPa 0,0 l/m² 0 min 0 W/m² 0,0 km/h (0 Bft) 95,74 %
21.03.2026 05:36 4,5 °C 3,9 °C 0,6 °C 87 % 1018,2 hPa 0,0 l/m² 0 min 0 W/m² 0,0 km/h (0 Bft) 97,83 %
21.03.2026 05:38 4,5 °C 3,9 °C 0,6 °C 88 % 1018,2 hPa 0,0 l/m² 0 min 0 W/m² 0,0 km/h (0 Bft) 97,22 %
21.03.2026 05:40 4,5 °C 3,9 °C 0,6 °C 88 % 1018,3 hPa 0,0 l/m² 0 min 0 W/m² 3,2 km/h (1 Bft) 98,11 %
21.03.2026 05:42 4,6 °C 3,9 °C 0,6 °C 88 % 1018,2 hPa 0,0 l/m² 0 min 0 W/m² 6,4 km/h (2 Bft) 95,92 %
21.03.2026 05:44 4,6 °C 3,9 °C 0,6 °C 88 % 1018,3 hPa 0,0 l/m² 0 min 0 W/m² 3,2 km/h (1 Bft) 98,00 %
21.03.2026 05:46 4,6 °C 3,9 °C 0,6 °C 88 % 1018,3 hPa 0,0 l/m² 0 min 0 W/m² 3,2 km/h (1 Bft) 97,83 %
21.03.2026 05:48 4,6 °C 3,9 °C 0,6 °C 88 % 1018,2 hPa 0,0 l/m² 0 min 0 W/m² 3,2 km/h (1 Bft) 97,22 %
21.03.2026 05:50 4,6 °C 3,9 °C 0,6 °C 88 % 1018,2 hPa 0,0 l/m² 0 min 0 W/m² 9,7 km/h (2 Bft) 97,87 %
21.03.2026 05:52 4,6 °C 3,9 °C 0,6 °C 88 % 1018,2 hPa 0,0 l/m² 0 min 0 W/m² 3,2 km/h (1 Bft) 98,11 %
21.03.2026 05:54 4,6 °C 3,9 °C 0,6 °C 88 % 1018,3 hPa 0,0 l/m² 0 min 0 W/m² 3,2 km/h (1 Bft) 95,74 %
21.03.2026 05:56 4,6 °C 3,9 °C 0,6 °C 88 % 1018,3 hPa 0,0 l/m² 0 min 0 W/m² 6,4 km/h (2 Bft) 97,83 %
21.03.2026 05:58 4,6 °C 3,9 °C 0,6 °C 88 % 1018,3 hPa 0,0 l/m² 0 min 0 W/m² 0,0 km/h (0 Bft) 95,74 %
21.03.2026 06:00 4,6 °C 3,9 °C 0,6 °C 89 % 1018,3 hPa 0,0 l/m² 0 min 0 W/m² 3,2 km/h (1 Bft) 95,74 %
21.03.2026 06:02 4,6 °C 3,9 °C 0,6 °C 88 % 1018,3 hPa 0,0 l/m² 0 min 0 W/m² 6,4 km/h (2 Bft) 93,62 %
21.03.2026 06:04 4,6 °C 3,9 °C 0,6 °C 89 % 1018,3 hPa 0,0 l/m² 0 min 0 W/m² 6,4 km/h (2 Bft) 95,12 %
21.03.2026 06:10 4,6 °C 3,3 °C 0,0 °C 88 % 1018,3 hPa 0,0 l/m² 0 min 0 W/m² 3,2 km/h (1 Bft) 98,00 %
21.03.2026 06:12 4,6 °C 3,3 °C 0,0 °C 88 % 1018,3 hPa 0,0 l/m² 0 min 0 W/m² 6,4 km/h (2 Bft) 95,74 %
21.03.2026 06:14 4,5 °C 3,3 °C 0,0 °C 88 % 1018,3 hPa 0,0 l/m² 0 min 0 W/m² 3,2 km/h (1 Bft) 97,87 %
21.03.2026 06:16 4,5 °C 3,3 °C 0,0 °C 88 % 1018,3 hPa 0,0 l/m² 0 min 0 W/m² 3,2 km/h (1 Bft) 95,74 %
21.03.2026 06:18 4,5 °C 3,3 °C 0,0 °C 88 % 1018,3 hPa 0,0 l/m² 0 min 0 W/m² 0,0 km/h (0 Bft) 53,49 %
21.03.2026 06:20 4,5 °C 3,3 °C 0,0 °C 88 % 1018,3 hPa 0,0 l/m² 0 min 0 W/m² 0,0 km/h (0 Bft) 96,46 %
21.03.2026 06:22 4,4 °C 3,3 °C 0,0 °C 88 % 1018,4 hPa 0,0 l/m² 0 min 0 W/m² 3,2 km/h (1 Bft) 97,50 %
21.03.2026 06:24 4,4 °C 3,3 °C 0,0 °C 88 % 1018,4 hPa 0,0 l/m² 0 min 0 W/m² 3,2 km/h (1 Bft) 97,87 %
21.03.2026 06:26 4,4 °C 3,3 °C 0,0 °C 88 % 1018,3 hPa 0,0 l/m² 0 min 0 W/m² 3,2 km/h (1 Bft) 97,87 %
21.03.2026 06:28 4,4 °C 3,3 °C 0,0 °C 88 % 1018,3 hPa 0,0 l/m² 0 min 0 W/m² 0,0 km/h (0 Bft) 97,87 %
21.03.2026 06:30 4,4 °C 3,3 °C 0,0 °C 89 % 1018,3 hPa 0,0 l/m² 0 min 0 W/m² 3,2 km/h (1 Bft) 100,00 %
21.03.2026 06:32 4,3 °C 3,3 °C 0,0 °C 89 % 1018,4 hPa 0,0 l/m² 0 min 0 W/m² 3,2 km/h (1 Bft) 100,00 %
21.03.2026 06:34 4,3 °C 3,3 °C 0,0 °C 89 % 1018,4 hPa 0,0 l/m² 0 min 0 W/m² 3,2 km/h (1 Bft) 100,00 %
21.03.2026 06:36 4,3 °C 3,3 °C 0,0 °C 89 % 1018,4 hPa 0,0 l/m² 0 min 2 W/m² 0,0 km/h (0 Bft) 100,00 %
21.03.2026 06:38 4,3 °C 2,8 °C 0,0 °C 89 % 1018,4 hPa 0,0 l/m² 0 min 5 W/m² 3,2 km/h (1 Bft) 100,00 %
21.03.2026 06:40 4,3 °C 3,3 °C 0,0 °C 89 % 1018,4 hPa 0,0 l/m² 0 min 5 W/m² 9,7 km/h (2 Bft) 100,00 %
21.03.2026 06:42 4,3 °C 3,3 °C 0,0 °C 89 % 1018,4 hPa 0,0 l/m² 0 min 7 W/m² 0,0 km/h (0 Bft) 100,00 %
21.03.2026 06:44 4,3 °C 3,3 °C 0,0 °C 89 % 1018,4 hPa 0,0 l/m² 0 min 7 W/m² 3,2 km/h (1 Bft) 100,00 %
21.03.2026 06:46 4,2 °C 3,3 °C 0,0 °C 89 % 1018,4 hPa 0,0 l/m² 0 min 9 W/m² 3,2 km/h (1 Bft) 97,87 %
21.03.2026 06:48 4,2 °C 3,3 °C 0,0 °C 89 % 1018,4 hPa 0,0 l/m² 0 min 11 W/m² 3,2 km/h (1 Bft) 100,00 %
21.03.2026 06:50 4,2 °C 3,3 °C 0,0 °C 89 % 1018,5 hPa 0,0 l/m² 0 min 11 W/m² 3,2 km/h (1 Bft) 97,87 %
21.03.2026 06:52 4,2 °C 3,3 °C 0,0 °C 89 % 1018,5 hPa 0,0 l/m² 0 min 12 W/m² 3,2 km/h (1 Bft) 100,00 %
21.03.2026 06:54 4,2 °C 3,3 °C 0,0 °C 89 % 1018,5 hPa 0,0 l/m² 0 min 13 W/m² 3,2 km/h (1 Bft) 100,00 %
21.03.2026 06:56 4,2 °C 3,3 °C 0,0 °C 89 % 1018,5 hPa 0,0 l/m² 0 min 14 W/m² 0,0 km/h (0 Bft) 100,00 %
21.03.2026 06:58 4,2 °C 3,3 °C 0,0 °C 89 % 1018,5 hPa 0,0 l/m² 0 min 16 W/m² 0,0 km/h (0 Bft) 100,00 %
21.03.2026 07:00 4,2 °C 3,3 °C 0,0 °C 89 % 1018,4 hPa 0,0 l/m² 0 min 17 W/m² 0,0 km/h (0 Bft) 100,00 %
21.03.2026 07:02 4,2 °C 3,3 °C 0,0 °C 89 % 1018,4 hPa 0,0 l/m² 0 min 18 W/m² 3,2 km/h (1 Bft) 97,87 %
21.03.2026 07:04 4,2 °C 3,3 °C 0,0 °C 89 % 1018,5 hPa 0,0 l/m² 0 min 19 W/m² 3,2 km/h (1 Bft) 100,00 %
21.03.2026 07:06 4,2 °C 3,3 °C 0,0 °C 89 % 1018,5 hPa 0,0 l/m² 0 min 19 W/m² 0,0 km/h (0 Bft) 95,65 %
21.03.2026 07:08 4,2 °C 3,3 °C 0,0 °C 89 % 1018,5 hPa 0,0 l/m² 0 min 21 W/m² 0,0 km/h (0 Bft) 100,00 %
21.03.2026 07:10 4,2 °C 3,3 °C 0,0 °C 89 % 1018,5 hPa 0,0 l/m² 0 min 22 W/m² 3,2 km/h (1 Bft) 100,00 %
21.03.2026 07:12 4,2 °C 3,3 °C 0,0 °C 89 % 1018,5 hPa 0,0 l/m² 0 min 23 W/m² 3,2 km/h (1 Bft) 100,00 %
21.03.2026 07:14 4,2 °C 3,3 °C 0,0 °C 89 % 1018,5 hPa 0,0 l/m² 0 min 24 W/m² 3,2 km/h (1 Bft) 100,00 %
21.03.2026 07:16 4,2 °C 3,3 °C 0,0 °C 89 % 1018,5 hPa 0,0 l/m² 0 min 25 W/m² 3,2 km/h (1 Bft) 97,87 %
21.03.2026 07:18 4,2 °C 3,9 °C 0,0 °C 89 % 1018,5 hPa 0,0 l/m² 0 min 26 W/m² 6,4 km/h (2 Bft) 100,00 %
21.03.2026 07:20 4,2 °C 3,9 °C 0,0 °C 90 % 1018,5 hPa 0,0 l/m² 0 min 27 W/m² 12,9 km/h (3 Bft) 100,00 %
21.03.2026 07:22 4,2 °C 3,9 °C 0,0 °C 90 % 1018,5 hPa 0,0 l/m² 0 min 29 W/m² 6,4 km/h (2 Bft) 97,87 %
21.03.2026 07:24 4,2 °C 3,9 °C 0,0 °C 90 % 1018,6 hPa 0,0 l/m² 0 min 30 W/m² 3,2 km/h (1 Bft) 100,00 %
21.03.2026 07:26 4,2 °C 3,9 °C 0,6 °C 90 % 1018,6 hPa 0,0 l/m² 0 min 31 W/m² 9,7 km/h (2 Bft) 97,87 %
21.03.2026 07:28 4,2 °C 3,9 °C 0,6 °C 90 % 1018,6 hPa 0,0 l/m² 0 min 32 W/m² 6,4 km/h (2 Bft) 95,74 %
21.03.2026 07:30 4,3 °C 3,9 °C 0,6 °C 90 % 1018,6 hPa 0,0 l/m² 0 min 33 W/m² 3,2 km/h (1 Bft) 95,74 %
21.03.2026 07:32 4,3 °C 3,9 °C 0,6 °C 90 % 1018,6 hPa 0,0 l/m² 0 min 34 W/m² 9,7 km/h (2 Bft) 91,49 %
21.03.2026 07:34 4,3 °C 3,9 °C 0,6 °C 90 % 1018,6 hPa 0,0 l/m² 0 min 35 W/m² 6,4 km/h (2 Bft) 95,74 %
21.03.2026 07:36 4,3 °C 3,9 °C 0,6 °C 90 % 1018,7 hPa 0,0 l/m² 0 min 35 W/m² 0,0 km/h (0 Bft) 93,48 %
21.03.2026 07:38 4,3 °C 4,4 °C 0,6 °C 90 % 1018,7 hPa 0,0 l/m² 0 min 37 W/m² 3,2 km/h (1 Bft) 93,62 %
21.03.2026 07:40 4,3 °C 4,4 °C 0,6 °C 90 % 1018,7 hPa 0,0 l/m² 0 min 37 W/m² 3,2 km/h (1 Bft) 89,36 %
21.03.2026 07:42 4,4 °C 4,4 °C 0,6 °C 90 % 1018,7 hPa 0,0 l/m² 0 min 37 W/m² 3,2 km/h (1 Bft) 93,62 %
21.03.2026 07:44 4,4 °C 4,4 °C 0,6 °C 90 % 1018,8 hPa 0,0 l/m² 0 min 39 W/m² 3,2 km/h (1 Bft) 93,62 %
21.03.2026 07:46 4,4 °C 4,4 °C 0,6 °C 90 % 1018,7 hPa 0,0 l/m² 0 min 39 W/m² 3,2 km/h (1 Bft) 93,62 %
21.03.2026 07:48 4,5 °C 4,4 °C 0,6 °C 91 % 1018,7 hPa 0,0 l/m² 0 min 40 W/m² 0,0 km/h (0 Bft) 93,48 %
21.03.2026 07:50 4,5 °C 4,4 °C 0,6 °C 90 % 1018,7 hPa 0,0 l/m² 0 min 40 W/m² 6,4 km/h (2 Bft) 91,49 %
21.03.2026 07:52 4,6 °C 4,4 °C 1,1 °C 90 % 1018,7 hPa 0,0 l/m² 0 min 38 W/m² 6,4 km/h (2 Bft) 91,49 %
21.03.2026 07:54 4,6 °C 4,4 °C 1,1 °C 91 % 1018,7 hPa 0,0 l/m² 0 min 38 W/m² 3,2 km/h (1 Bft) 93,62 %
21.03.2026 07:56 4,6 °C 4,4 °C 1,1 °C 91 % 1018,7 hPa 0,0 l/m² 0 min 41 W/m² 9,7 km/h (2 Bft) 93,62 %
21.03.2026 07:58 4,6 °C 5,0 °C 1,1 °C 91 % 1018,7 hPa 0,0 l/m² 0 min 42 W/m² 9,7 km/h (2 Bft) 93,62 %
21.03.2026 08:00 4,7 °C 5,0 °C 1,1 °C 91 % 1018,8 hPa 0,0 l/m² 0 min 44 W/m² 6,4 km/h (2 Bft) 95,65 %
21.03.2026 08:02 4,7 °C 5,0 °C 1,1 °C 91 % 1018,7 hPa 0,0 l/m² 0 min 42 W/m² 6,4 km/h (2 Bft) 91,49 %
21.03.2026 08:04 4,8 °C 5,0 °C 1,1 °C 91 % 1018,7 hPa 0,0 l/m² 0 min 41 W/m² 6,4 km/h (2 Bft) 93,75 %
21.03.2026 08:06 4,8 °C 5,0 °C 1,1 °C 91 % 1018,7 hPa 0,0 l/m² 0 min 44 W/m² 9,7 km/h (2 Bft) 95,00 %
21.03.2026 08:08 4,9 °C 5,0 °C 1,1 °C 91 % 1018,7 hPa 0,0 l/m² 0 min 47 W/m² 9,7 km/h (2 Bft) 97,14 %
21.03.2026 08:10 4,9 °C 5,0 °C 1,1 °C 91 % 1018,7 hPa 0,0 l/m² 0 min 49 W/m² 9,7 km/h (2 Bft) 97,87 %
21.03.2026 08:12 5,0 °C 5,6 °C 1,1 °C 91 % 1018,7 hPa 0,0 l/m² 0 min 50 W/m² 6,4 km/h (2 Bft) 97,87 %
21.03.2026 08:14 5,1 °C 5,6 °C 1,1 °C 91 % 1018,7 hPa 0,0 l/m² 0 min 51 W/m² 9,7 km/h (2 Bft) 97,87 %
21.03.2026 08:16 5,1 °C 5,6 °C 1,7 °C 91 % 1018,7 hPa 0,0 l/m² 0 min 53 W/m² 6,4 km/h (2 Bft) 95,74 %
21.03.2026 08:18 5,2 °C 5,6 °C 1,7 °C 91 % 1018,8 hPa 0,0 l/m² 0 min 53 W/m² 6,4 km/h (2 Bft) 95,65 %
21.03.2026 08:20 5,2 °C 5,6 °C 1,7 °C 91 % 1018,7 hPa 0,0 l/m² 0 min 53 W/m² 3,2 km/h (1 Bft) 97,87 %
21.03.2026 08:22 5,3 °C 5,6 °C 1,7 °C 91 % 1018,7 hPa 0,0 l/m² 0 min 52 W/m² 12,9 km/h (3 Bft) 93,62 %
21.03.2026 08:24 5,3 °C 5,6 °C 1,7 °C 91 % 1018,8 hPa 0,0 l/m² 0 min 52 W/m² 9,7 km/h (2 Bft) 100,00 %
21.03.2026 08:26 5,4 °C 5,6 °C 1,7 °C 91 % 1018,8 hPa 0,0 l/m² 0 min 53 W/m² 3,2 km/h (1 Bft) 100,00 %
21.03.2026 08:28 5,4 °C 6,1 °C 1,7 °C 91 % 1018,8 hPa 0,0 l/m² 0 min 53 W/m² 6,4 km/h (2 Bft) 95,74 %
21.03.2026 08:30 5,5 °C 6,1 °C 1,7 °C 91 % 1018,8 hPa 0,0 l/m² 0 min 54 W/m² 16,1 km/h (3 Bft) 97,83 %
21.03.2026 08:32 5,6 °C 6,1 °C 1,7 °C 91 % 1018,8 hPa 0,0 l/m² 0 min 54 W/m² 6,4 km/h (2 Bft) 97,87 %
21.03.2026 08:34 5,6 °C 6,1 °C 2,2 °C 91 % 1018,8 hPa 0,0 l/m² 0 min 60 W/m² 6,4 km/h (2 Bft) 100,00 %
21.03.2026 08:36 5,7 °C 6,1 °C 2,2 °C 91 % 1018,8 hPa 0,0 l/m² 0 min 63 W/m² 6,4 km/h (2 Bft) 100,00 %
21.03.2026 08:38 5,7 °C 6,1 °C 2,2 °C 90 % 1018,8 hPa 0,0 l/m² 0 min 58 W/m² 19,3 km/h (3 Bft) 100,00 %
21.03.2026 08:40 5,8 °C 6,1 °C 2,2 °C 90 % 1018,8 hPa 0,0 l/m² 0 min 85 W/m² 12,9 km/h (3 Bft) 100,00 %
21.03.2026 08:42 5,8 °C 6,7 °C 2,2 °C 90 % 1018,8 hPa 0,0 l/m² 0 min 79 W/m² 6,4 km/h (2 Bft) 97,87 %
21.03.2026 08:44 5,9 °C 6,7 °C 2,2 °C 90 % 1018,8 hPa 0,0 l/m² 0 min 66 W/m² 9,7 km/h (2 Bft) 100,00 %
21.03.2026 08:46 5,9 °C 6,7 °C 2,2 °C 90 % 1018,9 hPa 0,0 l/m² 0 min 96 W/m² 12,9 km/h (3 Bft) 100,00 %
21.03.2026 08:48 6,1 °C 7,2 °C 2,2 °C 90 % 1018,8 hPa 0,0 l/m² 2 min 199 W/m² 12,9 km/h (3 Bft) 100,00 %
21.03.2026 08:50 6,2 °C 7,8 °C 2,8 °C 90 % 1018,8 hPa 0,0 l/m² 2 min 203 W/m² 9,7 km/h (2 Bft) 100,00 %
21.03.2026 08:52 6,3 °C 8,3 °C 2,8 °C 90 % 1018,9 hPa 0,0 l/m² 2 min 271 W/m² 6,4 km/h (2 Bft) 100,00 %
21.03.2026 08:54 6,4 °C 9,4 °C 2,8 °C 90 % 1018,9 hPa 0,0 l/m² 2 min 269 W/m² 9,7 km/h (2 Bft) 100,00 %
21.03.2026 08:56 6,5 °C 10,0 °C 3,3 °C 90 % 1018,9 hPa 0,0 l/m² 2 min 267 W/m² 6,4 km/h (2 Bft) 100,00 %
21.03.2026 08:58 6,7 °C 11,7 °C 3,3 °C 90 % 1018,9 hPa 0,0 l/m² 2 min 181 W/m² 12,9 km/h (3 Bft) 100,00 %
21.03.2026 09:00 6,9 °C 13,3 °C 3,3 °C 90 % 1018,9 hPa 0,0 l/m² 2 min 259 W/m² 9,7 km/h (2 Bft) 100,00 %
21.03.2026 09:02 7,1 °C 13,9 °C 3,3 °C 89 % 1018,9 hPa 0,0 l/m² 2 min 205 W/m² 9,7 km/h (2 Bft) 100,00 %
21.03.2026 09:04 7,2 °C 15,0 °C 3,9 °C 89 % 1018,9 hPa 0,0 l/m² 2 min 228 W/m² 9,7 km/h (2 Bft) 100,00 %
21.03.2026 09:06 7,4 °C 16,1 °C 3,9 °C 88 % 1018,9 hPa 0,0 l/m² 2 min 270 W/m² 6,4 km/h (2 Bft) 100,00 %
21.03.2026 09:08 7,6 °C 16,1 °C 3,9 °C 88 % 1018,9 hPa 0,0 l/m² 2 min 286 W/m² 6,4 km/h (2 Bft) 100,00 %
21.03.2026 09:10 7,8 °C 16,7 °C 4,4 °C 87 % 1018,9 hPa 0,0 l/m² 2 min 274 W/m² 9,7 km/h (2 Bft) 100,00 %
21.03.2026 09:12 7,9 °C 16,7 °C 4,4 °C 87 % 1018,9 hPa 0,0 l/m² 2 min 314 W/m² 12,9 km/h (3 Bft) 97,87 %
21.03.2026 09:14 8,1 °C 15,6 °C 4,4 °C 86 % 1018,9 hPa 0,0 l/m² 2 min 349 W/m² 12,9 km/h (3 Bft) 100,00 %
21.03.2026 09:16 8,2 °C 14,4 °C 4,4 °C 85 % 1019,0 hPa 0,0 l/m² 2 min 332 W/m² 12,9 km/h (3 Bft) 100,00 %
21.03.2026 09:18 8,3 °C 14,4 °C 4,4 °C 84 % 1018,9 hPa 0,0 l/m² 2 min 334 W/m² 9,7 km/h (2 Bft) 100,00 %
21.03.2026 09:20 8,5 °C 15,0 °C 5,0 °C 84 % 1018,9 hPa 0,0 l/m² 2 min 324 W/m² 6,4 km/h (2 Bft) 100,00 %
21.03.2026 09:22 8,6 °C 15,6 °C 5,0 °C 83 % 1018,9 hPa 0,0 l/m² 2 min 348 W/m² 9,7 km/h (2 Bft) 100,00 %
21.03.2026 09:24 8,7 °C 15,6 °C 5,6 °C 82 % 1018,9 hPa 0,0 l/m² 2 min 362 W/m² 16,1 km/h (3 Bft) 100,00 %
21.03.2026 09:26 8,9 °C 16,7 °C 5,6 °C 82 % 1018,9 hPa 0,0 l/m² 2 min 333 W/m² 6,4 km/h (2 Bft) 100,00 %
21.03.2026 09:28 9,1 °C 17,2 °C 6,1 °C 82 % 1018,8 hPa 0,0 l/m² 2 min 271 W/m² 9,7 km/h (2 Bft) 100,00 %
21.03.2026 09:30 9,2 °C 17,2 °C 6,1 °C 81 % 1018,9 hPa 0,0 l/m² 2 min 287 W/m² 9,7 km/h (2 Bft) 97,87 %
21.03.2026 09:32 9,3 °C 16,7 °C 6,1 °C 80 % 1018,9 hPa 0,0 l/m² 2 min 271 W/m² 6,4 km/h (2 Bft) 100,00 %
21.03.2026 09:34 9,5 °C 16,1 °C 6,7 °C 80 % 1018,8 hPa 0,0 l/m² 2 min 292 W/m² 9,7 km/h (2 Bft) 97,87 %
21.03.2026 09:36 9,6 °C 16,1 °C 6,7 °C 79 % 1018,8 hPa 0,0 l/m² 2 min 259 W/m² 6,4 km/h (2 Bft) 97,87 %
21.03.2026 09:38 9,8 °C 15,6 °C 6,7 °C 79 % 1018,9 hPa 0,0 l/m² 2 min 312 W/m² 6,4 km/h (2 Bft) 97,87 %
21.03.2026 09:40 9,9 °C 15,0 °C 6,7 °C 78 % 1018,8 hPa 0,0 l/m² 2 min 262 W/m² 9,7 km/h (2 Bft) 97,83 %
21.03.2026 09:42 10,0 °C 16,1 °C 6,7 °C 78 % 1018,8 hPa 0,0 l/m² 2 min 254 W/m² 6,4 km/h (2 Bft) 97,87 %
21.03.2026 09:44 10,2 °C 16,7 °C 7,2 °C 78 % 1018,8 hPa 0,0 l/m² 2 min 306 W/m² 9,7 km/h (2 Bft) 97,87 %
21.03.2026 09:46 10,3 °C 16,7 °C 6,7 °C 77 % 1018,8 hPa 0,0 l/m² 2 min 263 W/m² 6,4 km/h (2 Bft) 97,87 %
21.03.2026 09:48 10,4 °C 17,2 °C 6,7 °C 76 % 1018,8 hPa 0,0 l/m² 0 min 186 W/m² 9,7 km/h (2 Bft) 97,87 %
21.03.2026 09:50 10,4 °C 17,8 °C 6,7 °C 76 % 1018,7 hPa 0,0 l/m² 2 min 293 W/m² 9,7 km/h (2 Bft) 97,87 %
21.03.2026 09:52 10,5 °C 17,2 °C 6,7 °C 76 % 1018,8 hPa 0,0 l/m² 2 min 300 W/m² 9,7 km/h (2 Bft) 93,48 %
21.03.2026 09:54 10,6 °C 16,1 °C 6,7 °C 76 % 1018,7 hPa 0,0 l/m² 2 min 305 W/m² 9,7 km/h (2 Bft) 97,87 %
21.03.2026 09:56 10,6 °C 15,6 °C 6,7 °C 75 % 1018,7 hPa 0,0 l/m² 2 min 353 W/m² 9,7 km/h (2 Bft) 97,87 %
21.03.2026 09:58 10,7 °C 15,6 °C 7,2 °C 75 % 1018,7 hPa 0,0 l/m² 2 min 254 W/m² 6,4 km/h (2 Bft) 97,87 %
21.03.2026 10:00 10,7 °C 15,0 °C 7,2 °C 75 % 1018,7 hPa 0,0 l/m² 2 min 279 W/m² 16,1 km/h (3 Bft) 97,87 %
21.03.2026 10:02 10,8 °C 14,4 °C 7,2 °C 74 % 1018,7 hPa 0,0 l/m² 2 min 339 W/m² 9,7 km/h (2 Bft) 95,74 %
21.03.2026 10:04 10,8 °C 14,4 °C 7,2 °C 74 % 1018,6 hPa 0,0 l/m² 2 min 326 W/m² 9,7 km/h (2 Bft) 95,65 %
21.03.2026 10:06 10,9 °C 14,4 °C 7,2 °C 74 % 1018,6 hPa 0,0 l/m² 2 min 378 W/m² 9,7 km/h (2 Bft) 100,00 %
21.03.2026 10:08 10,9 °C 15,6 °C 7,8 °C 75 % 1018,6 hPa 0,0 l/m² 2 min 354 W/m² 6,4 km/h (2 Bft) 100,00 %
21.03.2026 10:10 11,0 °C 16,1 °C 8,3 °C 75 % 1018,6 hPa 0,0 l/m² 2 min 319 W/m² 6,4 km/h (2 Bft) 100,00 %
21.03.2026 10:12 11,1 °C 16,7 °C 8,3 °C 75 % 1018,6 hPa 0,0 l/m² 2 min 417 W/m² 9,7 km/h (2 Bft) 95,74 %
21.03.2026 10:14 11,2 °C 16,7 °C 8,9 °C 74 % 1018,7 hPa 0,0 l/m² 2 min 444 W/m² 9,7 km/h (2 Bft) 97,83 %
21.03.2026 10:16 11,2 °C 16,1 °C 8,9 °C 73 % 1018,7 hPa 0,0 l/m² 2 min 319 W/m² 9,7 km/h (2 Bft) 97,87 %
21.03.2026 10:18 11,2 °C 15,6 °C 9,4 °C 72 % 1018,7 hPa 0,0 l/m² 2 min 257 W/m² 3,2 km/h (1 Bft) 97,87 %
21.03.2026 10:20 11,2 °C 15,6 °C 9,4 °C 73 % 1018,6 hPa 0,0 l/m² 2 min 462 W/m² 9,7 km/h (2 Bft) 97,87 %
21.03.2026 10:22 11,3 °C 16,7 °C 10,0 °C 73 % 1018,7 hPa 0,0 l/m² 2 min 478 W/m² 6,4 km/h (2 Bft) 97,87 %
21.03.2026 10:24 11,5 °C 16,7 °C 10,0 °C 73 % 1018,7 hPa 0,0 l/m² 2 min 494 W/m² 9,7 km/h (2 Bft) 95,74 %
21.03.2026 10:26 11,6 °C 16,1 °C 10,6 °C 73 % 1018,7 hPa 0,0 l/m² 2 min 429 W/m² 6,4 km/h (2 Bft) 97,83 %
21.03.2026 10:28 11,7 °C 16,1 °C 10,6 °C 72 % 1018,7 hPa 0,0 l/m² 2 min 421 W/m² 6,4 km/h (2 Bft) 97,87 %
21.03.2026 10:30 11,8 °C 16,1 °C 10,6 °C 72 % 1018,7 hPa 0,0 l/m² 2 min 291 W/m² 9,7 km/h (2 Bft) 97,87 %
21.03.2026 10:32 12,1 °C 17,2 °C 10,6 °C 72 % 1018,7 hPa 0,0 l/m² 0 min 163 W/m² 9,7 km/h (2 Bft) 97,87 %
21.03.2026 10:34 12,2 °C 17,2 °C 11,1 °C 72 % 1018,7 hPa 0,0 l/m² 2 min 433 W/m² 12,9 km/h (3 Bft) 97,87 %
21.03.2026 10:36 12,3 °C 18,3 °C 11,1 °C 71 % 1018,7 hPa 0,0 l/m² 2 min 536 W/m² 12,9 km/h (3 Bft) 97,87 %
21.03.2026 10:38 12,3 °C 18,9 °C 11,1 °C 71 % 1018,7 hPa 0,0 l/m² 2 min 460 W/m² 16,1 km/h (3 Bft) 95,65 %
21.03.2026 10:40 12,3 °C 18,9 °C 11,1 °C 71 % 1018,7 hPa 0,0 l/m² 2 min 521 W/m² 9,7 km/h (2 Bft) 97,87 %
21.03.2026 10:42 12,4 °C 19,4 °C 11,7 °C 71 % 1018,7 hPa 0,0 l/m² 2 min 441 W/m² 12,9 km/h (3 Bft) 95,74 %
21.03.2026 10:44 12,6 °C 21,1 °C 11,7 °C 71 % 1018,7 hPa 0,0 l/m² 2 min 356 W/m² 6,4 km/h (2 Bft) 97,87 %
21.03.2026 10:46 12,8 °C 22,2 °C 12,2 °C 71 % 1018,7 hPa 0,0 l/m² 2 min 396 W/m² 6,4 km/h (2 Bft) 97,87 %
21.03.2026 10:48 12,9 °C 23,9 °C 12,2 °C 71 % 1018,6 hPa 0,0 l/m² 2 min 566 W/m² 6,4 km/h (2 Bft) 95,74 %
21.03.2026 10:50 13,0 °C 23,3 °C 12,2 °C 70 % 1018,6 hPa 0,0 l/m² 2 min 573 W/m² 9,7 km/h (2 Bft) 97,87 %
21.03.2026 10:52 13,1 °C 23,3 °C 12,8 °C 70 % 1018,6 hPa 0,0 l/m² 2 min 577 W/m² 12,9 km/h (3 Bft) 97,83 %
21.03.2026 10:54 13,1 °C 22,2 °C 12,8 °C 68 % 1018,6 hPa 0,0 l/m² 2 min 580 W/m² 12,9 km/h (3 Bft) 97,87 %
21.03.2026 10:56 13,2 °C 22,2 °C 13,3 °C 68 % 1018,6 hPa 0,0 l/m² 2 min 585 W/m² 9,7 km/h (2 Bft) 97,87 %
21.03.2026 10:58 13,2 °C 22,8 °C 13,3 °C 68 % 1018,6 hPa 0,0 l/m² 2 min 589 W/m² 9,7 km/h (2 Bft) 100,00 %
21.03.2026 11:00 13,3 °C 23,9 °C 13,9 °C 68 % 1018,5 hPa 0,0 l/m² 2 min 592 W/m² 9,7 km/h (2 Bft) 100,00 %
21.03.2026 11:02 13,3 °C 23,9 °C 13,9 °C 68 % 1018,5 hPa 0,0 l/m² 2 min 595 W/m² 9,7 km/h (2 Bft) 100,00 %
21.03.2026 11:04 13,4 °C 24,4 °C 13,9 °C 68 % 1018,5 hPa 0,0 l/m² 2 min 594 W/m² 12,9 km/h (3 Bft) 97,83 %
21.03.2026 11:06 13,5 °C 25,0 °C 13,9 °C 67 % 1018,5 hPa 0,0 l/m² 2 min 593 W/m² 6,4 km/h (2 Bft) 100,00 %
21.03.2026 11:08 13,6 °C 25,0 °C 14,4 °C 67 % 1018,5 hPa 0,0 l/m² 2 min 596 W/m² 9,7 km/h (2 Bft) 100,00 %
21.03.2026 11:10 13,7 °C 25,0 °C 14,4 °C 67 % 1018,5 hPa 0,0 l/m² 2 min 600 W/m² 12,9 km/h (3 Bft) 100,00 %
21.03.2026 11:12 13,8 °C 25,0 °C 15,6 °C 67 % 1018,5 hPa 0,0 l/m² 2 min 604 W/m² 9,7 km/h (2 Bft) 100,00 %
21.03.2026 11:14 13,9 °C 24,4 °C 15,6 °C 66 % 1018,4 hPa 0,0 l/m² 2 min 607 W/m² 16,1 km/h (3 Bft) 95,65 %
21.03.2026 11:16 13,9 °C 25,0 °C 15,6 °C 66 % 1018,4 hPa 0,0 l/m² 2 min 611 W/m² 9,7 km/h (2 Bft) 100,00 %
21.03.2026 11:18 14,0 °C 24,4 °C 15,6 °C 65 % 1018,4 hPa 0,0 l/m² 2 min 616 W/m² 9,7 km/h (2 Bft) 100,00 %
21.03.2026 11:20 14,1 °C 24,4 °C 16,1 °C 66 % 1018,3 hPa 0,0 l/m² 2 min 621 W/m² 6,4 km/h (2 Bft) 100,00 %
21.03.2026 11:22 14,3 °C 25,0 °C 16,1 °C 66 % 1018,3 hPa 0,0 l/m² 2 min 626 W/m² 12,9 km/h (3 Bft) 100,00 %
21.03.2026 11:24 14,3 °C 25,6 °C 16,7 °C 66 % 1018,3 hPa 0,0 l/m² 2 min 631 W/m² 12,9 km/h (3 Bft) 97,87 %
21.03.2026 11:26 14,4 °C 26,1 °C 16,7 °C 67 % 1018,2 hPa 0,0 l/m² 2 min 635 W/m² 9,7 km/h (2 Bft) 100,00 %
21.03.2026 11:28 14,6 °C 27,2 °C 16,1 °C 66 % 1018,2 hPa 0,0 l/m² 2 min 635 W/m² 9,7 km/h (2 Bft) 97,87 %
21.03.2026 11:30 14,7 °C 26,1 °C 16,7 °C 64 % 1018,3 hPa 0,0 l/m² 2 min 636 W/m² 12,9 km/h (3 Bft) 95,74 %
21.03.2026 11:32 14,8 °C 26,1 °C 16,1 °C 64 % 1018,3 hPa 0,0 l/m² 2 min 636 W/m² 12,9 km/h (3 Bft) 97,87 %
21.03.2026 11:34 14,9 °C 26,1 °C 16,1 °C 63 % 1018,3 hPa 0,0 l/m² 2 min 631 W/m² 12,9 km/h (3 Bft) 97,87 %
21.03.2026 11:36 14,9 °C 26,1 °C 16,7 °C 62 % 1018,2 hPa 0,0 l/m² 2 min 632 W/m² 12,9 km/h (3 Bft) 97,87 %
21.03.2026 11:38 15,1 °C 26,1 °C 16,7 °C 62 % 1018,2 hPa 0,0 l/m² 2 min 640 W/m² 12,9 km/h (3 Bft) 97,83 %
21.03.2026 11:40 15,2 °C 26,7 °C 17,2 °C 62 % 1018,2 hPa 0,0 l/m² 2 min 645 W/m² 16,1 km/h (3 Bft) 97,87 %
21.03.2026 11:42 15,3 °C 26,1 °C 17,2 °C 62 % 1018,2 hPa 0,0 l/m² 2 min 643 W/m² 12,9 km/h (3 Bft) 97,87 %
21.03.2026 11:44 15,3 °C 25,6 °C 17,2 °C 61 % 1018,3 hPa 0,0 l/m² 2 min 648 W/m² 12,9 km/h (3 Bft) 95,74 %
21.03.2026 11:46 15,3 °C 25,0 °C 17,8 °C 59 % 1018,2 hPa 0,0 l/m² 2 min 647 W/m² 12,9 km/h (3 Bft) 95,74 %
21.03.2026 11:48 15,3 °C 24,4 °C 17,8 °C 59 % 1018,2 hPa 0,0 l/m² 2 min 654 W/m² 19,3 km/h (3 Bft) 97,87 %
21.03.2026 11:50 15,4 °C 25,0 °C 18,3 °C 60 % 1018,2 hPa 0,0 l/m² 2 min 654 W/m² 12,9 km/h (3 Bft) 97,83 %
21.03.2026 11:52 15,4 °C 26,1 °C 17,2 °C 60 % 1018,2 hPa 0,0 l/m² 2 min 659 W/m² 9,7 km/h (2 Bft) 97,87 %
21.03.2026 11:54 15,5 °C 26,7 °C 17,2 °C 60 % 1018,2 hPa 0,0 l/m² 2 min 661 W/m² 12,9 km/h (3 Bft) 97,87 %
21.03.2026 11:56 15,5 °C 26,1 °C 16,7 °C 59 % 1018,3 hPa 0,0 l/m² 2 min 656 W/m² 16,1 km/h (3 Bft) 100,00 %
21.03.2026 11:58 15,6 °C 26,7 °C 16,7 °C 58 % 1018,2 hPa 0,0 l/m² 2 min 659 W/m² 9,7 km/h (2 Bft) 100,00 %
21.03.2026 12:00 15,5 °C 26,1 °C 16,1 °C 58 % 1018,2 hPa 0,0 l/m² 2 min 658 W/m² 12,9 km/h (3 Bft) 100,00 %
21.03.2026 12:02 15,5 °C 27,2 °C 15,6 °C 58 % 1018,1 hPa 0,0 l/m² 2 min 662 W/m² 16,1 km/h (3 Bft) 100,00 %
21.03.2026 12:04 15,5 °C 25,6 °C 16,7 °C 57 % 1018,1 hPa 0,0 l/m² 2 min 663 W/m² 19,3 km/h (3 Bft) 100,00 %
21.03.2026 12:07 15,4 °C 25,0 °C 15,6 °C 57 % 1018,0 hPa 0,0 l/m² 3 min 657 W/m² 22,5 km/h (4 Bft) 100,00 %
21.03.2026 12:10 15,3 °C 25,0 °C 14,4 °C 58 % 1018,0 hPa 0,0 l/m² 3 min 661 W/m² 22,5 km/h (4 Bft) 99,31 %
21.03.2026 12:12 15,4 °C 26,1 °C 13,3 °C 59 % 1018,0 hPa 0,0 l/m² 2 min 651 W/m² 9,7 km/h (2 Bft) 100,00 %
21.03.2026 12:14 15,5 °C 26,1 °C 12,8 °C 59 % 1018,0 hPa 0,0 l/m² 2 min 665 W/m² 12,9 km/h (3 Bft) 100,00 %
21.03.2026 12:16 15,5 °C 26,7 °C 12,2 °C 58 % 1017,9 hPa 0,0 l/m² 2 min 669 W/m² 9,7 km/h (2 Bft) 100,00 %
21.03.2026 12:18 15,6 °C 27,2 °C 12,8 °C 58 % 1017,9 hPa 0,0 l/m² 2 min 667 W/m² 12,9 km/h (3 Bft) 97,87 %
21.03.2026 12:20 15,6 °C 25,6 °C 12,8 °C 58 % 1017,8 hPa 0,0 l/m² 2 min 669 W/m² 19,3 km/h (3 Bft) 97,87 %
21.03.2026 12:22 15,6 °C 25,0 °C 12,8 °C 57 % 1017,9 hPa 0,0 l/m² 2 min 667 W/m² 19,3 km/h (3 Bft) 100,00 %
21.03.2026 12:24 15,6 °C 25,6 °C 12,8 °C 56 % 1017,8 hPa 0,0 l/m² 2 min 664 W/m² 12,9 km/h (3 Bft) 100,00 %
21.03.2026 12:26 15,6 °C 25,6 °C 12,8 °C 56 % 1017,8 hPa 0,0 l/m² 2 min 665 W/m² 16,1 km/h (3 Bft) 100,00 %
21.03.2026 12:28 15,6 °C 26,1 °C 13,3 °C 56 % 1017,9 hPa 0,0 l/m² 2 min 666 W/m² 16,1 km/h (3 Bft) 100,00 %
21.03.2026 12:30 15,7 °C 25,6 °C 13,9 °C 56 % 1017,8 hPa 0,0 l/m² 2 min 669 W/m² 16,1 km/h (3 Bft) 100,00 %
21.03.2026 12:35 15,8 °C 26,7 °C 14,4 °C 56 % 1017,8 hPa 0,0 l/m² 5 min 669 W/m² 22,5 km/h (4 Bft) 100,00 %
21.03.2026 12:40 15,9 °C 26,7 °C 14,4 °C 56 % 1017,8 hPa 0,0 l/m² 5 min 675 W/m² 16,1 km/h (3 Bft) 100,00 %
21.03.2026 12:45 15,9 °C 25,6 °C 12,8 °C 55 % 1017,7 hPa 0,0 l/m² 5 min 673 W/m² 16,1 km/h (3 Bft) 100,00 %
21.03.2026 12:50 15,9 °C 25,0 °C 11,7 °C 54 % 1017,6 hPa 0,0 l/m² 5 min 672 W/m² 16,1 km/h (3 Bft) 100,00 %
21.03.2026 12:54 15,9 °C 25,0 °C 11,7 °C 55 % 1017,7 hPa 0,0 l/m² 4 min 666 W/m² 12,9 km/h (3 Bft) 100,00 %
21.03.2026 12:56 15,9 °C 25,6 °C 11,7 °C 54 % 1017,7 hPa 0,0 l/m² 2 min 671 W/m² 12,9 km/h (3 Bft) 97,87 %
21.03.2026 12:58 15,9 °C 26,1 °C 11,7 °C 54 % 1017,6 hPa 0,0 l/m² 2 min 673 W/m² 12,9 km/h (3 Bft) 100,00 %
21.03.2026 13:00 16,1 °C 26,1 °C 11,7 °C 54 % 1017,6 hPa 0,0 l/m² 2 min 666 W/m² 22,5 km/h (4 Bft) 95,74 %
21.03.2026 13:02 15,9 °C 25,6 °C 11,1 °C 54 % 1017,6 hPa 0,0 l/m² 2 min 660 W/m² 38,6 km/h (5 Bft) 97,87 %
21.03.2026 13:04 15,9 °C 26,1 °C 11,1 °C 55 % 1017,5 hPa 0,0 l/m² 2 min 671 W/m² 12,9 km/h (3 Bft) 97,83 %
21.03.2026 13:06 15,9 °C 25,6 °C 11,1 °C 54 % 1017,5 hPa 0,0 l/m² 2 min 673 W/m² 19,3 km/h (3 Bft) 93,88 %
21.03.2026 13:08 15,9 °C 25,6 °C 11,1 °C 54 % 1017,5 hPa 0,0 l/m² 2 min 672 W/m² 12,9 km/h (3 Bft) 95,65 %
21.03.2026 13:10 15,8 °C 25,6 °C 11,1 °C 54 % 1017,5 hPa 0,0 l/m² 2 min 671 W/m² 25,7 km/h (4 Bft) 97,87 %
21.03.2026 13:12 15,8 °C 25,0 °C 11,1 °C 54 % 1017,5 hPa 0,0 l/m² 2 min 668 W/m² 12,9 km/h (3 Bft) 97,87 %
21.03.2026 13:14 15,8 °C 26,1 °C 11,1 °C 55 % 1017,5 hPa 0,0 l/m² 2 min 666 W/m² 16,1 km/h (3 Bft) 95,74 %
21.03.2026 13:16 15,9 °C 26,1 °C 11,1 °C 55 % 1017,4 hPa 0,0 l/m² 2 min 670 W/m² 16,1 km/h (3 Bft) 93,48 %
21.03.2026 13:18 15,9 °C 26,1 °C 11,1 °C 54 % 1017,5 hPa 0,0 l/m² 2 min 669 W/m² 16,1 km/h (3 Bft) 95,74 %
21.03.2026 13:20 16,0 °C 25,0 °C 11,1 °C 54 % 1017,5 hPa 0,0 l/m² 2 min 665 W/m² 16,1 km/h (3 Bft) 93,62 %
21.03.2026 13:22 16,0 °C 25,0 °C 11,1 °C 54 % 1017,4 hPa 0,0 l/m² 2 min 664 W/m² 19,3 km/h (3 Bft) 95,74 %
21.03.2026 13:24 16,1 °C 26,1 °C 11,1 °C 55 % 1017,4 hPa 0,0 l/m² 2 min 659 W/m² 12,9 km/h (3 Bft) 93,62 %
21.03.2026 13:26 16,2 °C 25,6 °C 11,1 °C 54 % 1017,4 hPa 0,0 l/m² 2 min 658 W/m² 25,7 km/h (4 Bft) 95,74 %
21.03.2026 13:28 16,1 °C 23,9 °C 11,1 °C 53 % 1017,3 hPa 0,0 l/m² 2 min 660 W/m² 25,7 km/h (4 Bft) 95,65 %
21.03.2026 13:30 16,1 °C 25,0 °C 11,1 °C 54 % 1017,3 hPa 0,0 l/m² 2 min 652 W/m² 16,1 km/h (3 Bft) 95,74 %
21.03.2026 13:32 16,1 °C 25,6 °C 11,1 °C 54 % 1017,2 hPa 0,0 l/m² 2 min 651 W/m² 12,9 km/h (3 Bft) 93,62 %
21.03.2026 13:34 16,1 °C 25,6 °C 11,1 °C 55 % 1017,3 hPa 0,0 l/m² 2 min 651 W/m² 32,2 km/h (5 Bft) 95,74 %
21.03.2026 13:36 16,1 °C 25,0 °C 11,1 °C 54 % 1017,3 hPa 0,0 l/m² 2 min 651 W/m² 22,5 km/h (4 Bft) 95,74 %
21.03.2026 13:38 16,2 °C 25,6 °C 11,1 °C 54 % 1017,3 hPa 0,0 l/m² 2 min 647 W/m² 16,1 km/h (3 Bft) 95,74 %
21.03.2026 13:40 16,2 °C 25,6 °C 11,1 °C 53 % 1017,2 hPa 0,0 l/m² 2 min 653 W/m² 19,3 km/h (3 Bft) 93,48 %
21.03.2026 13:42 16,3 °C 26,1 °C 11,1 °C 53 % 1017,2 hPa 0,0 l/m² 2 min 652 W/m² 9,7 km/h (2 Bft) 95,74 %
21.03.2026 13:44 16,3 °C 25,0 °C 11,1 °C 53 % 1017,1 hPa 0,0 l/m² 2 min 644 W/m² 16,1 km/h (3 Bft) 95,74 %
21.03.2026 13:46 16,4 °C 25,0 °C 11,1 °C 54 % 1017,1 hPa 0,0 l/m² 2 min 642 W/m² 16,1 km/h (3 Bft) 93,62 %
21.03.2026 13:48 16,3 °C 24,4 °C 11,1 °C 53 % 1017,1 hPa 0,0 l/m² 2 min 643 W/m² 16,1 km/h (3 Bft) 97,87 %
21.03.2026 13:50 16,3 °C 25,0 °C 11,7 °C 55 % 1017,1 hPa 0,0 l/m² 2 min 645 W/m² 16,1 km/h (3 Bft) 100,00 %
21.03.2026 13:52 16,3 °C 25,0 °C 11,7 °C 55 % 1017,0 hPa 0,0 l/m² 2 min 643 W/m² 19,3 km/h (3 Bft) 100,00 %
21.03.2026 13:54 16,3 °C 25,0 °C 11,7 °C 54 % 1017,0 hPa 0,0 l/m² 2 min 631 W/m² 16,1 km/h (3 Bft) 93,62 %
21.03.2026 13:56 16,4 °C 24,4 °C 11,7 °C 54 % 1017,0 hPa 0,0 l/m² 2 min 633 W/m² 16,1 km/h (3 Bft) 97,87 %
21.03.2026 13:58 16,4 °C 23,9 °C 11,1 °C 53 % 1017,0 hPa 0,0 l/m² 2 min 630 W/m² 19,3 km/h (3 Bft) 97,87 %
21.03.2026 14:00 16,4 °C 23,3 °C 11,7 °C 53 % 1017,0 hPa 0,0 l/m² 2 min 627 W/m² 16,1 km/h (3 Bft) 100,00 %
21.03.2026 14:02 16,5 °C 23,9 °C 11,7 °C 53 % 1017,0 hPa 0,0 l/m² 2 min 630 W/m² 19,3 km/h (3 Bft) 97,83 %
21.03.2026 14:04 16,6 °C 24,4 °C 11,7 °C 53 % 1017,0 hPa 0,0 l/m² 2 min 622 W/m² 16,1 km/h (3 Bft) 97,87 %
21.03.2026 14:06 16,6 °C 24,4 °C 11,7 °C 53 % 1017,0 hPa 0,0 l/m² 2 min 622 W/m² 16,1 km/h (3 Bft) 97,87 %
21.03.2026 14:08 16,6 °C 23,9 °C 11,7 °C 53 % 1016,9 hPa 0,0 l/m² 2 min 617 W/m² 22,5 km/h (4 Bft) 100,00 %
21.03.2026 14:10 16,6 °C 23,9 °C 11,7 °C 53 % 1016,9 hPa 0,0 l/m² 2 min 618 W/m² 9,7 km/h (2 Bft) 97,87 %
21.03.2026 14:12 16,6 °C 23,9 °C 11,7 °C 54 % 1017,0 hPa 0,0 l/m² 2 min 612 W/m² 12,9 km/h (3 Bft) 100,00 %
21.03.2026 14:14 16,6 °C 24,4 °C 11,7 °C 53 % 1016,9 hPa 0,0 l/m² 2 min 611 W/m² 16,1 km/h (3 Bft) 100,00 %
21.03.2026 14:16 16,7 °C 23,9 °C 11,7 °C 53 % 1016,8 hPa 0,0 l/m² 2 min 604 W/m² 12,9 km/h (3 Bft) 95,74 %
21.03.2026 14:18 16,7 °C 23,3 °C 11,7 °C 52 % 1016,8 hPa 0,0 l/m² 2 min 609 W/m² 22,5 km/h (4 Bft) 97,87 %
21.03.2026 14:20 16,8 °C 23,9 °C 11,7 °C 53 % 1016,9 hPa 0,0 l/m² 2 min 607 W/m² 16,1 km/h (3 Bft) 97,87 %
21.03.2026 14:22 16,7 °C 23,9 °C 11,7 °C 53 % 1016,8 hPa 0,0 l/m² 2 min 602 W/m² 16,1 km/h (3 Bft) 97,87 %
21.03.2026 14:24 16,8 °C 24,4 °C 12,2 °C 53 % 1016,8 hPa 0,0 l/m² 2 min 598 W/m² 19,3 km/h (3 Bft) 97,87 %
21.03.2026 14:26 16,9 °C 23,9 °C 12,2 °C 53 % 1016,7 hPa 0,0 l/m² 2 min 592 W/m² 16,1 km/h (3 Bft) 97,83 %
21.03.2026 14:28 16,9 °C 23,9 °C 12,2 °C 53 % 1016,7 hPa 0,0 l/m² 2 min 598 W/m² 16,1 km/h (3 Bft) 95,74 %
21.03.2026 14:30 17,0 °C 24,4 °C 12,2 °C 53 % 1016,7 hPa 0,0 l/m² 2 min 596 W/m² 22,5 km/h (4 Bft) 95,74 %
21.03.2026 14:32 17,1 °C 24,4 °C 12,2 °C 52 % 1016,7 hPa 0,0 l/m² 2 min 592 W/m² 19,3 km/h (3 Bft) 97,87 %
21.03.2026 14:34 17,0 °C 24,4 °C 12,2 °C 53 % 1016,6 hPa 0,0 l/m² 2 min 585 W/m² 22,5 km/h (4 Bft) 97,87 %
21.03.2026 14:36 17,1 °C 23,9 °C 12,2 °C 53 % 1016,6 hPa 0,0 l/m² 2 min 582 W/m² 12,9 km/h (3 Bft) 97,87 %
21.03.2026 14:38 17,1 °C 23,9 °C 12,2 °C 53 % 1016,7 hPa 0,0 l/m² 2 min 580 W/m² 12,9 km/h (3 Bft) 97,83 %
21.03.2026 14:40 17,1 °C 23,3 °C 12,2 °C 53 % 1016,7 hPa 0,0 l/m² 2 min 579 W/m² 19,3 km/h (3 Bft) 97,87 %
21.03.2026 14:42 17,1 °C 23,9 °C 12,2 °C 53 % 1016,7 hPa 0,0 l/m² 2 min 574 W/m² 9,7 km/h (2 Bft) 95,74 %
21.03.2026 14:44 17,1 °C 25,0 °C 12,2 °C 52 % 1016,7 hPa 0,0 l/m² 2 min 576 W/m² 16,1 km/h (3 Bft) 97,87 %
21.03.2026 14:46 17,2 °C 25,0 °C 12,2 °C 52 % 1016,6 hPa 0,0 l/m² 2 min 574 W/m² 16,1 km/h (3 Bft) 95,74 %
21.03.2026 14:48 17,2 °C 23,3 °C 12,2 °C 52 % 1016,6 hPa 0,0 l/m² 2 min 570 W/m² 19,3 km/h (3 Bft) 97,87 %
21.03.2026 14:50 17,1 °C 23,3 °C 12,2 °C 53 % 1016,6 hPa 0,0 l/m² 2 min 561 W/m² 16,1 km/h (3 Bft) 95,65 %
21.03.2026 14:52 17,0 °C 23,3 °C 12,2 °C 53 % 1016,6 hPa 0,0 l/m² 2 min 549 W/m² 16,1 km/h (3 Bft) 97,87 %
21.03.2026 14:54 16,9 °C 22,8 °C 12,2 °C 53 % 1016,6 hPa 0,0 l/m² 2 min 546 W/m² 19,3 km/h (3 Bft) 97,87 %
21.03.2026 14:56 16,8 °C 22,8 °C 12,2 °C 53 % 1016,5 hPa 0,0 l/m² 2 min 554 W/m² 16,1 km/h (3 Bft) 97,87 %
21.03.2026 14:58 16,8 °C 22,2 °C 12,2 °C 54 % 1016,6 hPa 0,0 l/m² 2 min 547 W/m² 19,3 km/h (3 Bft) 97,87 %
21.03.2026 15:00 16,7 °C 22,8 °C 12,2 °C 54 % 1016,6 hPa 0,0 l/m² 2 min 540 W/m² 12,9 km/h (3 Bft) 93,62 %
21.03.2026 15:02 16,7 °C 22,2 °C 12,2 °C 53 % 1016,5 hPa 0,0 l/m² 2 min 530 W/m² 22,5 km/h (4 Bft) 97,83 %
21.03.2026 15:04 16,7 °C 22,8 °C 12,2 °C 54 % 1016,5 hPa 0,0 l/m² 2 min 524 W/m² 9,7 km/h (2 Bft) 97,62 %
21.03.2026 15:06 16,8 °C 22,8 °C 12,2 °C 54 % 1016,5 hPa 0,0 l/m² 2 min 523 W/m² 12,9 km/h (3 Bft) 98,11 %
21.03.2026 15:08 16,8 °C 22,8 °C 12,2 °C 54 % 1016,4 hPa 0,0 l/m² 2 min 520 W/m² 16,1 km/h (3 Bft) 97,92 %
21.03.2026 15:10 16,8 °C 23,3 °C 12,8 °C 55 % 1016,5 hPa 0,0 l/m² 2 min 509 W/m² 16,1 km/h (3 Bft) 97,87 %
21.03.2026 15:12 16,8 °C 21,7 °C 12,2 °C 53 % 1016,5 hPa 0,0 l/m² 2 min 513 W/m² 16,1 km/h (3 Bft) 97,83 %
21.03.2026 15:14 16,8 °C 22,2 °C 12,8 °C 54 % 1016,4 hPa 0,0 l/m² 2 min 503 W/m² 12,9 km/h (3 Bft) 100,00 %
21.03.2026 15:16 16,8 °C 21,7 °C 12,2 °C 54 % 1016,4 hPa 0,0 l/m² 2 min 505 W/m² 22,5 km/h (4 Bft) 97,87 %
21.03.2026 15:18 16,8 °C 21,1 °C 12,2 °C 54 % 1016,4 hPa 0,0 l/m² 2 min 507 W/m² 25,7 km/h (4 Bft) 100,00 %
21.03.2026 15:20 16,8 °C 21,1 °C 12,2 °C 53 % 1016,4 hPa 0,0 l/m² 2 min 502 W/m² 19,3 km/h (3 Bft) 100,00 %
21.03.2026 15:22 16,8 °C 22,2 °C 12,8 °C 55 % 1016,3 hPa 0,0 l/m² 2 min 495 W/m² 9,7 km/h (2 Bft) 97,87 %
21.03.2026 15:24 16,8 °C 22,2 °C 12,8 °C 55 % 1016,4 hPa 0,0 l/m² 2 min 489 W/m² 9,7 km/h (2 Bft) 97,83 %
21.03.2026 15:26 16,8 °C 22,2 °C 12,8 °C 54 % 1016,3 hPa 0,0 l/m² 2 min 485 W/m² 22,5 km/h (4 Bft) 97,87 %
21.03.2026 15:28 16,8 °C 22,2 °C 12,2 °C 53 % 1016,4 hPa 0,0 l/m² 2 min 484 W/m² 19,3 km/h (3 Bft) 97,87 %
21.03.2026 15:30 16,7 °C 21,1 °C 12,2 °C 53 % 1016,3 hPa 0,0 l/m² 2 min 474 W/m² 19,3 km/h (3 Bft) 97,87 %
21.03.2026 15:32 16,7 °C 21,1 °C 12,2 °C 53 % 1016,3 hPa 0,0 l/m² 2 min 463 W/m² 16,1 km/h (3 Bft) 97,87 %
21.03.2026 15:34 16,7 °C 21,1 °C 12,2 °C 53 % 1016,2 hPa 0,0 l/m² 2 min 464 W/m² 19,3 km/h (3 Bft) 97,87 %
21.03.2026 15:36 16,6 °C 20,6 °C 12,2 °C 53 % 1016,2 hPa 0,0 l/m² 2 min 467 W/m² 22,5 km/h (4 Bft) 97,83 %
21.03.2026 15:38 16,6 °C 20,0 °C 12,2 °C 53 % 1016,2 hPa 0,0 l/m² 2 min 463 W/m² 16,1 km/h (3 Bft) 97,87 %
21.03.2026 15:40 16,4 °C 20,0 °C 11,7 °C 53 % 1016,2 hPa 0,0 l/m² 2 min 459 W/m² 16,1 km/h (3 Bft) 97,87 %
21.03.2026 15:42 16,4 °C 20,0 °C 11,7 °C 53 % 1016,1 hPa 0,0 l/m² 2 min 447 W/m² 16,1 km/h (3 Bft) 97,87 %
21.03.2026 15:44 16,3 °C 20,0 °C 11,7 °C 53 % 1016,2 hPa 0,0 l/m² 2 min 436 W/m² 16,1 km/h (3 Bft) 97,87 %
21.03.2026 15:46 16,3 °C 20,6 °C 11,7 °C 54 % 1016,1 hPa 0,0 l/m² 2 min 425 W/m² 6,4 km/h (2 Bft) 95,74 %
21.03.2026 15:48 16,3 °C 20,0 °C 11,7 °C 54 % 1016,1 hPa 0,0 l/m² 2 min 427 W/m² 16,1 km/h (3 Bft) 97,83 %
21.03.2026 15:50 16,4 °C 20,6 °C 12,2 °C 53 % 1016,1 hPa 0,0 l/m² 2 min 434 W/m² 16,1 km/h (3 Bft) 95,74 %
21.03.2026 15:52 16,4 °C 21,1 °C 11,7 °C 53 % 1016,1 hPa 0,0 l/m² 2 min 428 W/m² 9,7 km/h (2 Bft) 93,62 %
21.03.2026 15:54 16,3 °C 21,1 °C 11,7 °C 53 % 1016,1 hPa 0,0 l/m² 2 min 423 W/m² 19,3 km/h (3 Bft) 95,74 %
21.03.2026 15:56 16,3 °C 21,1 °C 11,7 °C 54 % 1016,0 hPa 0,0 l/m² 2 min 415 W/m² 6,4 km/h (2 Bft) 95,74 %
21.03.2026 15:58 16,3 °C 21,1 °C 11,7 °C 54 % 1016,0 hPa 0,0 l/m² 2 min 411 W/m² 12,9 km/h (3 Bft) 95,74 %
21.03.2026 16:00 16,3 °C 20,6 °C 11,1 °C 53 % 1016,0 hPa 0,0 l/m² 2 min 407 W/m² 16,1 km/h (3 Bft) 95,65 %
21.03.2026 16:02 16,3 °C 20,0 °C 11,1 °C 52 % 1015,9 hPa 0,0 l/m² 2 min 402 W/m² 25,7 km/h (4 Bft) 93,62 %
21.03.2026 16:04 16,2 °C 20,0 °C 10,6 °C 53 % 1015,9 hPa 0,0 l/m² 2 min 396 W/m² 16,1 km/h (3 Bft) 95,24 %
21.03.2026 16:06 16,1 °C 20,0 °C 10,6 °C 52 % 1015,8 hPa 0,0 l/m² 2 min 392 W/m² 16,1 km/h (3 Bft) 95,74 %
21.03.2026 16:08 16,1 °C 20,0 °C 10,6 °C 53 % 1015,8 hPa 0,0 l/m² 2 min 384 W/m² 12,9 km/h (3 Bft) 96,23 %
21.03.2026 16:10 16,1 °C 20,0 °C 10,6 °C 54 % 1015,8 hPa 0,0 l/m² 2 min 374 W/m² 12,9 km/h (3 Bft) 97,87 %
21.03.2026 16:12 16,0 °C 19,4 °C 10,6 °C 53 % 1015,8 hPa 0,0 l/m² 2 min 364 W/m² 22,5 km/h (4 Bft) 97,83 %
21.03.2026 16:14 15,9 °C 18,9 °C 10,6 °C 53 % 1015,8 hPa 0,0 l/m² 2 min 360 W/m² 22,5 km/h (4 Bft) 97,87 %
21.03.2026 16:16 15,9 °C 18,3 °C 10,0 °C 53 % 1015,8 hPa 0,0 l/m² 2 min 357 W/m² 19,3 km/h (3 Bft) 95,74 %
21.03.2026 16:18 15,9 °C 18,3 °C 10,0 °C 53 % 1015,8 hPa 0,0 l/m² 2 min 350 W/m² 22,5 km/h (4 Bft) 97,87 %
21.03.2026 16:20 15,8 °C 18,9 °C 10,0 °C 54 % 1015,8 hPa 0,0 l/m² 2 min 343 W/m² 16,1 km/h (3 Bft) 97,87 %
21.03.2026 16:22 15,7 °C 18,9 °C 10,0 °C 53 % 1015,7 hPa 0,0 l/m² 2 min 345 W/m² 16,1 km/h (3 Bft) 97,87 %
21.03.2026 16:24 15,7 °C 18,3 °C 10,0 °C 53 % 1015,8 hPa 0,0 l/m² 2 min 338 W/m² 16,1 km/h (3 Bft) 93,48 %
21.03.2026 16:26 15,6 °C 18,9 °C 10,0 °C 54 % 1015,7 hPa 0,0 l/m² 2 min 336 W/m² 12,9 km/h (3 Bft) 97,87 %
21.03.2026 16:28 15,6 °C 18,9 °C 10,0 °C 55 % 1015,7 hPa 0,0 l/m² 2 min 329 W/m² 16,1 km/h (3 Bft) 97,87 %
21.03.2026 16:30 15,4 °C 18,9 °C 9,4 °C 54 % 1015,7 hPa 0,0 l/m² 2 min 324 W/m² 12,9 km/h (3 Bft) 97,87 %
21.03.2026 16:32 15,4 °C 18,9 °C 10,0 °C 54 % 1015,7 hPa 0,0 l/m² 2 min 318 W/m² 16,1 km/h (3 Bft) 95,74 %
21.03.2026 16:34 15,3 °C 18,9 °C 10,0 °C 55 % 1015,8 hPa 0,0 l/m² 2 min 312 W/m² 16,1 km/h (3 Bft) 95,65 %
21.03.2026 16:36 15,2 °C 18,9 °C 9,4 °C 57 % 1015,8 hPa 0,0 l/m² 2 min 308 W/m² 9,7 km/h (2 Bft) 97,87 %
21.03.2026 16:38 15,2 °C 18,9 °C 9,4 °C 58 % 1015,8 hPa 0,0 l/m² 2 min 300 W/m² 9,7 km/h (2 Bft) 100,00 %
21.03.2026 16:40 15,2 °C 18,3 °C 9,4 °C 58 % 1015,8 hPa 0,0 l/m² 2 min 290 W/m² 12,9 km/h (3 Bft) 97,87 %
21.03.2026 16:42 15,1 °C 17,8 °C 9,4 °C 59 % 1015,8 hPa 0,0 l/m² 2 min 282 W/m² 12,9 km/h (3 Bft) 100,00 %
21.03.2026 16:44 15,0 °C 17,2 °C 9,4 °C 59 % 1015,8 hPa 0,0 l/m² 2 min 277 W/m² 9,7 km/h (2 Bft) 95,74 %
21.03.2026 16:46 14,9 °C 17,2 °C 9,4 °C 59 % 1015,8 hPa 0,0 l/m² 2 min 266 W/m² 12,9 km/h (3 Bft) 100,00 %
21.03.2026 16:48 14,9 °C 17,2 °C 9,4 °C 58 % 1015,8 hPa 0,0 l/m² 2 min 254 W/m² 19,3 km/h (3 Bft) 97,87 %
21.03.2026 16:50 14,9 °C 17,8 °C 9,4 °C 59 % 1015,8 hPa 0,0 l/m² 2 min 251 W/m² 6,4 km/h (2 Bft) 100,00 %
21.03.2026 16:52 14,9 °C 17,8 °C 9,4 °C 58 % 1015,8 hPa 0,0 l/m² 2 min 245 W/m² 6,4 km/h (2 Bft) 97,87 %
21.03.2026 16:54 14,8 °C 17,8 °C 9,4 °C 59 % 1015,7 hPa 0,0 l/m² 2 min 242 W/m² 12,9 km/h (3 Bft) 97,87 %
21.03.2026 16:56 14,8 °C 17,8 °C 9,4 °C 59 % 1015,7 hPa 0,0 l/m² 2 min 235 W/m² 19,3 km/h (3 Bft) 100,00 %
21.03.2026 16:58 14,8 °C 17,2 °C 9,4 °C 59 % 1015,7 hPa 0,0 l/m² 2 min 229 W/m² 12,9 km/h (3 Bft) 100,00 %
21.03.2026 17:00 14,7 °C 17,2 °C 9,4 °C 59 % 1015,8 hPa 0,0 l/m² 2 min 221 W/m² 12,9 km/h (3 Bft) 100,00 %
21.03.2026 17:02 14,7 °C 16,7 °C 8,9 °C 59 % 1015,8 hPa 0,0 l/m² 2 min 216 W/m² 12,9 km/h (3 Bft) 100,00 %
21.03.2026 17:04 14,6 °C 16,1 °C 8,9 °C 59 % 1015,7 hPa 0,0 l/m² 2 min 212 W/m² 22,5 km/h (4 Bft) 100,00 %
21.03.2026 17:06 14,5 °C 16,1 °C 8,9 °C 60 % 1015,8 hPa 0,0 l/m² 2 min 204 W/m² 12,9 km/h (3 Bft) 97,87 %
21.03.2026 17:08 14,4 °C 16,1 °C 8,9 °C 60 % 1015,8 hPa 0,0 l/m² 2 min 195 W/m² 9,7 km/h (2 Bft) 100,00 %
21.03.2026 17:10 14,3 °C 15,0 °C 8,9 °C 60 % 1015,8 hPa 0,0 l/m² 2 min 187 W/m² 12,9 km/h (3 Bft) 100,00 %
21.03.2026 17:12 14,3 °C 14,4 °C 8,9 °C 61 % 1015,8 hPa 0,0 l/m² 2 min 183 W/m² 12,9 km/h (3 Bft) 97,87 %
21.03.2026 17:14 14,3 °C 13,9 °C 8,9 °C 60 % 1015,8 hPa 0,0 l/m² 2 min 178 W/m² 9,7 km/h (2 Bft) 100,00 %
21.03.2026 17:16 14,2 °C 13,9 °C 8,9 °C 61 % 1015,8 hPa 0,0 l/m² 2 min 169 W/m² 16,1 km/h (3 Bft) 100,00 %
21.03.2026 17:18 14,1 °C 13,3 °C 8,9 °C 61 % 1015,8 hPa 0,0 l/m² 2 min 154 W/m² 16,1 km/h (3 Bft) 100,00 %
21.03.2026 17:20 14,0 °C 13,3 °C 8,9 °C 61 % 1015,8 hPa 0,0 l/m² 2 min 148 W/m² 16,1 km/h (3 Bft) 100,00 %
21.03.2026 17:22 13,9 °C 13,3 °C 8,9 °C 62 % 1015,8 hPa 0,0 l/m² 2 min 143 W/m² 9,7 km/h (2 Bft) 97,87 %
21.03.2026 17:24 13,9 °C 13,9 °C 8,9 °C 63 % 1015,8 hPa 0,0 l/m² 2 min 141 W/m² 16,1 km/h (3 Bft) 100,00 %
21.03.2026 17:26 13,8 °C 13,9 °C 8,9 °C 63 % 1015,7 hPa 0,0 l/m² 2 min 141 W/m² 16,1 km/h (3 Bft) 100,00 %
21.03.2026 17:28 13,8 °C 13,3 °C 8,9 °C 63 % 1015,8 hPa 0,0 l/m² 2 min 101 W/m² 22,5 km/h (4 Bft) 100,00 %
21.03.2026 17:30 13,7 °C 13,3 °C 8,9 °C 64 % 1015,8 hPa 0,0 l/m² 0 min 66 W/m² 16,1 km/h (3 Bft) 97,87 %
21.03.2026 17:32 13,6 °C 13,3 °C 8,9 °C 64 % 1015,8 hPa 0,0 l/m² 2 min 123 W/m² 12,9 km/h (3 Bft) 97,87 %
21.03.2026 17:34 13,6 °C 13,3 °C 8,9 °C 65 % 1015,8 hPa 0,0 l/m² 2 min 124 W/m² 25,7 km/h (4 Bft) 97,87 %
21.03.2026 17:36 13,4 °C 13,3 °C 8,9 °C 65 % 1015,8 hPa 0,0 l/m² 2 min 118 W/m² 16,1 km/h (3 Bft) 97,83 %
21.03.2026 17:38 13,4 °C 13,3 °C 8,9 °C 65 % 1015,9 hPa 0,0 l/m² 2 min 111 W/m² 12,9 km/h (3 Bft) 97,87 %
21.03.2026 17:40 13,3 °C 13,3 °C 8,9 °C 66 % 1015,9 hPa 0,0 l/m² 2 min 103 W/m² 16,1 km/h (3 Bft) 95,74 %
21.03.2026 17:42 13,3 °C 13,3 °C 8,9 °C 66 % 1015,9 hPa 0,0 l/m² 2 min 96 W/m² 22,5 km/h (4 Bft) 95,74 %
21.03.2026 17:44 13,3 °C 13,3 °C 8,9 °C 66 % 1015,9 hPa 0,0 l/m² 2 min 91 W/m² 16,1 km/h (3 Bft) 95,74 %
21.03.2026 17:46 13,3 °C 13,3 °C 8,9 °C 66 % 1015,9 hPa 0,0 l/m² 2 min 86 W/m² 16,1 km/h (3 Bft) 97,87 %
21.03.2026 17:48 13,2 °C 12,8 °C 8,3 °C 67 % 1015,9 hPa 0,0 l/m² 2 min 83 W/m² 12,9 km/h (3 Bft) 97,87 %
21.03.2026 17:50 13,2 °C 12,8 °C 8,3 °C 67 % 1015,9 hPa 0,0 l/m² 2 min 78 W/m² 12,9 km/h (3 Bft) 93,48 %
21.03.2026 17:52 13,1 °C 12,2 °C 8,3 °C 67 % 1016,0 hPa 0,0 l/m² 2 min 76 W/m² 25,7 km/h (4 Bft) 95,74 %
21.03.2026 17:54 13,0 °C 12,2 °C 8,3 °C 68 % 1015,9 hPa 0,0 l/m² 2 min 75 W/m² 19,3 km/h (3 Bft) 97,87 %
21.03.2026 17:56 12,9 °C 12,2 °C 7,8 °C 69 % 1016,0 hPa 0,0 l/m² 2 min 70 W/m² 12,9 km/h (3 Bft) 93,62 %
21.03.2026 17:58 12,8 °C 12,2 °C 7,8 °C 69 % 1016,0 hPa 0,0 l/m² 2 min 64 W/m² 16,1 km/h (3 Bft) 97,87 %
21.03.2026 18:00 12,7 °C 11,7 °C 7,8 °C 69 % 1016,0 hPa 0,0 l/m² 0 min 58 W/m² 22,5 km/h (4 Bft) 95,74 %
21.03.2026 18:02 12,6 °C 11,7 °C 7,8 °C 70 % 1015,9 hPa 0,0 l/m² 0 min 52 W/m² 22,5 km/h (4 Bft) 95,65 %
21.03.2026 18:04 12,4 °C 11,1 °C 7,2 °C 70 % 1016,0 hPa 0,0 l/m² 0 min 42 W/m² 29,0 km/h (5 Bft) 95,92 %
21.03.2026 18:07 12,2 °C 11,1 °C 7,2 °C 71 % 1016,1 hPa 0,0 l/m² 0 min 35 W/m² 19,3 km/h (3 Bft) 95,92 %
21.03.2026 18:08 12,2 °C 11,1 °C 7,2 °C 71 % 1016,1 hPa 0,0 l/m² 0 min 36 W/m² 19,3 km/h (3 Bft) 95,00 %
21.03.2026 18:10 12,1 °C 10,6 °C 7,2 °C 71 % 1016,1 hPa 0,0 l/m² 0 min 33 W/m² 6,4 km/h (2 Bft) 100,00 %
21.03.2026 18:12 11,9 °C 10,6 °C 6,7 °C 72 % 1016,1 hPa 0,0 l/m² 0 min 32 W/m² 12,9 km/h (3 Bft) 95,08 %
21.03.2026 18:14 11,8 °C 10,6 °C 6,7 °C 72 % 1016,2 hPa 0,0 l/m² 0 min 30 W/m² 19,3 km/h (3 Bft) 97,87 %
21.03.2026 18:16 11,6 °C 10,6 °C 6,7 °C 73 % 1016,2 hPa 0,0 l/m² 0 min 28 W/m² 19,3 km/h (3 Bft) 97,87 %
21.03.2026 18:18 11,6 °C 10,0 °C 6,7 °C 73 % 1016,2 hPa 0,0 l/m² 0 min 26 W/m² 12,9 km/h (3 Bft) 95,65 %
21.03.2026 18:20 11,4 °C 10,0 °C 6,7 °C 73 % 1016,3 hPa 0,0 l/m² 0 min 25 W/m² 16,1 km/h (3 Bft) 97,87 %
21.03.2026 18:22 11,3 °C 10,0 °C 6,7 °C 74 % 1016,2 hPa 0,0 l/m² 0 min 23 W/m² 19,3 km/h (3 Bft) 97,87 %
21.03.2026 18:24 11,2 °C 10,0 °C 6,7 °C 74 % 1016,2 hPa 0,0 l/m² 0 min 20 W/m² 19,3 km/h (3 Bft) 95,74 %
21.03.2026 18:26 11,1 °C 10,0 °C 6,1 °C 74 % 1016,2 hPa 0,0 l/m² 0 min 19 W/m² 12,9 km/h (3 Bft) 97,87 %
21.03.2026 18:28 11,0 °C 10,0 °C 6,1 °C 74 % 1016,3 hPa 0,0 l/m² 0 min 18 W/m² 16,1 km/h (3 Bft) 97,87 %
21.03.2026 18:30 10,9 °C 9,4 °C 6,1 °C 75 % 1016,3 hPa 0,0 l/m² 0 min 16 W/m² 12,9 km/h (3 Bft) 95,65 %
21.03.2026 18:32 10,8 °C 9,4 °C 6,1 °C 75 % 1016,3 hPa 0,0 l/m² 0 min 14 W/m² 25,7 km/h (4 Bft) 97,87 %
21.03.2026 18:34 10,8 °C 9,4 °C 6,1 °C 75 % 1016,3 hPa 0,0 l/m² 0 min 13 W/m² 9,7 km/h (2 Bft) 97,87 %
21.03.2026 18:36 10,7 °C 9,4 °C 6,1 °C 75 % 1016,3 hPa 0,0 l/m² 0 min 12 W/m² 19,3 km/h (3 Bft) 97,87 %
21.03.2026 18:38 10,6 °C 9,4 °C 6,1 °C 75 % 1016,4 hPa 0,0 l/m² 0 min 11 W/m² 19,3 km/h (3 Bft) 97,87 %
21.03.2026 18:40 10,6 °C 9,4 °C 6,1 °C 75 % 1016,4 hPa 0,0 l/m² 0 min 10 W/m² 16,1 km/h (3 Bft) 100,00 %
21.03.2026 18:42 10,4 °C 9,4 °C 5,6 °C 75 % 1016,4 hPa 0,0 l/m² 0 min 9 W/m² 22,5 km/h (4 Bft) 100,00 %
21.03.2026 18:44 10,4 °C 9,4 °C 5,6 °C 75 % 1016,4 hPa 0,0 l/m² 0 min 7 W/m² 16,1 km/h (3 Bft) 95,74 %
21.03.2026 18:46 10,3 °C 8,9 °C 5,6 °C 75 % 1016,4 hPa 0,0 l/m² 0 min 6 W/m² 12,9 km/h (3 Bft) 95,74 %
21.03.2026 18:48 10,3 °C 8,9 °C 5,6 °C 76 % 1016,4 hPa 0,0 l/m² 0 min 5 W/m² 12,9 km/h (3 Bft) 97,87 %
21.03.2026 18:50 10,2 °C 8,9 °C 5,6 °C 76 % 1016,4 hPa 0,0 l/m² 0 min 4 W/m² 12,9 km/h (3 Bft) 97,87 %
21.03.2026 18:52 10,1 °C 8,9 °C 5,6 °C 76 % 1016,4 hPa 0,0 l/m² 0 min 0 W/m² 12,9 km/h (3 Bft) 95,74 %
21.03.2026 18:54 10,1 °C 8,9 °C 5,6 °C 77 % 1016,4 hPa 0,0 l/m² 0 min 0 W/m² 16,1 km/h (3 Bft) 95,65 %
21.03.2026 18:56 10,0 °C 8,9 °C 5,6 °C 77 % 1016,5 hPa 0,0 l/m² 0 min 0 W/m² 16,1 km/h (3 Bft) 97,87 %
21.03.2026 18:58 9,9 °C 8,9 °C 5,6 °C 77 % 1016,5 hPa 0,0 l/m² 0 min 0 W/m² 19,3 km/h (3 Bft) 97,87 %
21.03.2026 19:00 9,8 °C 8,9 °C 5,6 °C 77 % 1016,6 hPa 0,0 l/m² 0 min 0 W/m² 19,3 km/h (3 Bft) 97,87 %
21.03.2026 19:02 9,8 °C 8,3 °C 5,0 °C 77 % 1016,6 hPa 0,0 l/m² 0 min 0 W/m² 16,1 km/h (3 Bft) 95,74 %
21.03.2026 19:04 9,8 °C 8,3 °C 5,0 °C 78 % 1016,6 hPa 0,0 l/m² 0 min 0 W/m² 16,1 km/h (3 Bft) 97,87 %
21.03.2026 19:06 9,7 °C 8,3 °C 5,0 °C 78 % 1016,6 hPa 0,0 l/m² 0 min 0 W/m² 9,7 km/h (2 Bft) 97,83 %
21.03.2026 19:08 9,7 °C 8,3 °C 5,0 °C 78 % 1016,7 hPa 0,0 l/m² 0 min 0 W/m² 19,3 km/h (3 Bft) 97,87 %
21.03.2026 19:10 9,6 °C 8,3 °C 5,0 °C 78 % 1016,7 hPa 0,0 l/m² 0 min 0 W/m² 12,9 km/h (3 Bft) 95,74 %
21.03.2026 19:12 9,6 °C 8,3 °C 5,0 °C 78 % 1016,7 hPa 0,0 l/m² 0 min 0 W/m² 16,1 km/h (3 Bft) 93,62 %
21.03.2026 19:14 9,5 °C 8,3 °C 5,0 °C 79 % 1016,7 hPa 0,0 l/m² 0 min 0 W/m² 9,7 km/h (2 Bft) 97,87 %
21.03.2026 19:16 9,4 °C 8,3 °C 5,0 °C 79 % 1016,7 hPa 0,0 l/m² 0 min 0 W/m² 9,7 km/h (2 Bft) 97,87 %
21.03.2026 19:18 9,4 °C 8,3 °C 5,0 °C 79 % 1016,7 hPa 0,0 l/m² 0 min 0 W/m² 9,7 km/h (2 Bft) 97,83 %
21.03.2026 19:20 9,4 °C 8,3 °C 5,0 °C 79 % 1016,8 hPa 0,0 l/m² 0 min 0 W/m² 12,9 km/h (3 Bft) 95,74 %
21.03.2026 19:22 9,3 °C 7,8 °C 5,0 °C 79 % 1016,8 hPa 0,0 l/m² 0 min 0 W/m² 6,4 km/h (2 Bft) 97,87 %
21.03.2026 19:24 9,3 °C 7,8 °C 5,0 °C 79 % 1016,8 hPa 0,0 l/m² 0 min 0 W/m² 3,2 km/h (1 Bft) 97,87 %
21.03.2026 19:26 9,3 °C 7,8 °C 5,0 °C 79 % 1016,8 hPa 0,0 l/m² 0 min 0 W/m² 6,4 km/h (2 Bft) 97,87 %
21.03.2026 19:28 9,2 °C 7,8 °C 4,4 °C 80 % 1016,7 hPa 0,0 l/m² 0 min 0 W/m² 3,2 km/h (1 Bft) 93,62 %
21.03.2026 19:30 9,2 °C 7,8 °C 4,4 °C 80 % 1016,7 hPa 0,0 l/m² 0 min 0 W/m² 9,7 km/h (2 Bft) 95,65 %
21.03.2026 19:32 9,2 °C 7,8 °C 4,4 °C 80 % 1016,7 hPa 0,0 l/m² 0 min 0 W/m² 6,4 km/h (2 Bft) 97,87 %
21.03.2026 19:34 9,1 °C 7,8 °C 4,4 °C 80 % 1016,8 hPa 0,0 l/m² 0 min 0 W/m² 6,4 km/h (2 Bft) 95,74 %
21.03.2026 19:36 9,1 °C 7,8 °C 4,4 °C 80 % 1016,8 hPa 0,0 l/m² 0 min 0 W/m² 3,2 km/h (1 Bft) 97,87 %
21.03.2026 19:38 9,1 °C 7,8 °C 4,4 °C 80 % 1016,9 hPa 0,0 l/m² 0 min 0 W/m² 9,7 km/h (2 Bft) 93,62 %
21.03.2026 19:40 9,0 °C 7,8 °C 4,4 °C 81 % 1016,8 hPa 0,0 l/m² 0 min 0 W/m² 12,9 km/h (3 Bft) 100,00 %
21.03.2026 19:42 8,9 °C 7,8 °C 4,4 °C 81 % 1016,8 hPa 0,0 l/m² 0 min 0 W/m² 6,4 km/h (2 Bft) 97,87 %
21.03.2026 19:44 8,9 °C 7,8 °C 4,4 °C 81 % 1016,8 hPa 0,0 l/m² 0 min 0 W/m² 9,7 km/h (2 Bft) 97,87 %
21.03.2026 19:46 8,9 °C 7,8 °C 4,4 °C 81 % 1016,9 hPa 0,0 l/m² 0 min 0 W/m² 9,7 km/h (2 Bft) 95,74 %
21.03.2026 19:48 8,8 °C 7,8 °C 4,4 °C 81 % 1016,9 hPa 0,0 l/m² 0 min 0 W/m² 3,2 km/h (1 Bft) 97,87 %
21.03.2026 19:50 8,8 °C 7,8 °C 4,4 °C 81 % 1016,8 hPa 0,0 l/m² 0 min 0 W/m² 6,4 km/h (2 Bft) 97,87 %
21.03.2026 19:52 8,8 °C 7,8 °C 4,4 °C 81 % 1016,8 hPa 0,0 l/m² 0 min 0 W/m² 9,7 km/h (2 Bft) 95,74 %
21.03.2026 19:54 8,8 °C 7,2 °C 4,4 °C 82 % 1016,8 hPa 0,0 l/m² 0 min 0 W/m² 6,4 km/h (2 Bft) 93,48 %
21.03.2026 19:56 8,7 °C 7,2 °C 4,4 °C 82 % 1016,8 hPa 0,0 l/m² 0 min 0 W/m² 9,7 km/h (2 Bft) 95,74 %
21.03.2026 19:58 8,7 °C 7,2 °C 4,4 °C 82 % 1016,8 hPa 0,0 l/m² 0 min 0 W/m² 6,4 km/h (2 Bft) 95,74 %
21.03.2026 20:00 8,7 °C 7,2 °C 3,9 °C 82 % 1016,9 hPa 0,0 l/m² 0 min 0 W/m² 6,4 km/h (2 Bft) 95,74 %
21.03.2026 20:02 8,6 °C 7,2 °C 3,9 °C 82 % 1016,9 hPa 0,0 l/m² 0 min 0 W/m² 3,2 km/h (1 Bft) 93,62 %
21.03.2026 20:04 8,6 °C 7,2 °C 3,9 °C 82 % 1016,9 hPa 0,0 l/m² 0 min 0 W/m² 9,7 km/h (2 Bft) 97,62 %
21.03.2026 20:06 8,6 °C 7,2 °C 3,9 °C 82 % 1016,9 hPa 0,0 l/m² 0 min 0 W/m² 6,4 km/h (2 Bft) 93,62 %
21.03.2026 20:08 8,6 °C 7,2 °C 3,9 °C 82 % 1016,9 hPa 0,0 l/m² 0 min 0 W/m² 9,7 km/h (2 Bft) 93,48 %
21.03.2026 20:10 8,5 °C 7,2 °C 3,9 °C 83 % 1016,9 hPa 0,0 l/m² 0 min 0 W/m² 6,4 km/h (2 Bft) 95,74 %
21.03.2026 20:12 8,4 °C 7,2 °C 3,9 °C 83 % 1016,9 hPa 0,0 l/m² 0 min 0 W/m² 6,4 km/h (2 Bft) 95,74 %
21.03.2026 20:14 8,4 °C 7,2 °C 3,9 °C 83 % 1016,8 hPa 0,0 l/m² 0 min 0 W/m² 9,7 km/h (2 Bft) 95,74 %
21.03.2026 20:16 8,4 °C 7,2 °C 3,9 °C 83 % 1016,9 hPa 0,0 l/m² 0 min 0 W/m² 6,4 km/h (2 Bft) 95,74 %
21.03.2026 20:18 8,3 °C 7,2 °C 3,9 °C 83 % 1016,8 hPa 0,0 l/m² 0 min 0 W/m² 12,9 km/h (3 Bft) 97,87 %
21.03.2026 20:20 8,3 °C 7,2 °C 3,9 °C 83 % 1016,8 hPa 0,0 l/m² 0 min 0 W/m² 12,9 km/h (3 Bft) 97,83 %
21.03.2026 20:22 8,3 °C 7,2 °C 3,9 °C 83 % 1016,8 hPa 0,0 l/m² 0 min 0 W/m² 12,9 km/h (3 Bft) 100,00 %
21.03.2026 20:24 8,2 °C 6,7 °C 3,9 °C 83 % 1016,8 hPa 0,0 l/m² 0 min 0 W/m² 6,4 km/h (2 Bft) 100,00 %
21.03.2026 20:26 8,2 °C 6,7 °C 3,3 °C 83 % 1016,8 hPa 0,0 l/m² 0 min 0 W/m² 6,4 km/h (2 Bft) 100,00 %
21.03.2026 20:28 8,1 °C 6,7 °C 3,3 °C 83 % 1016,7 hPa 0,0 l/m² 0 min 0 W/m² 6,4 km/h (2 Bft) 100,00 %
21.03.2026 20:30 8,1 °C 6,7 °C 3,3 °C 83 % 1016,7 hPa 0,0 l/m² 0 min 0 W/m² 6,4 km/h (2 Bft) 97,87 %
21.03.2026 20:32 8,1 °C 6,7 °C 3,3 °C 84 % 1016,7 hPa 0,0 l/m² 0 min 0 W/m² 3,2 km/h (1 Bft) 100,00 %
21.03.2026 20:34 8,0 °C 6,7 °C 3,3 °C 84 % 1016,7 hPa 0,0 l/m² 0 min 0 W/m² 6,4 km/h (2 Bft) 97,87 %
21.03.2026 20:36 8,0 °C 6,7 °C 3,3 °C 84 % 1016,7 hPa 0,0 l/m² 0 min 0 W/m² 6,4 km/h (2 Bft) 100,00 %
21.03.2026 20:38 7,9 °C 6,7 °C 3,3 °C 84 % 1016,7 hPa 0,0 l/m² 0 min 0 W/m² 16,1 km/h (3 Bft) 100,00 %
21.03.2026 20:40 7,9 °C 6,7 °C 3,3 °C 84 % 1016,7 hPa 0,0 l/m² 0 min 0 W/m² 6,4 km/h (2 Bft) 100,00 %
21.03.2026 20:42 7,8 °C 6,7 °C 3,3 °C 84 % 1016,6 hPa 0,0 l/m² 0 min 0 W/m² 6,4 km/h (2 Bft) 100,00 %
21.03.2026 20:44 7,8 °C 6,1 °C 3,3 °C 84 % 1016,7 hPa 0,0 l/m² 0 min 0 W/m² 9,7 km/h (2 Bft) 95,65 %
21.03.2026 20:46 7,8 °C 6,1 °C 3,3 °C 85 % 1016,6 hPa 0,0 l/m² 0 min 0 W/m² 6,4 km/h (2 Bft) 97,87 %
21.03.2026 20:48 7,7 °C 6,1 °C 3,3 °C 85 % 1016,7 hPa 0,0 l/m² 0 min 0 W/m² 9,7 km/h (2 Bft) 100,00 %
21.03.2026 20:50 7,7 °C 6,1 °C 3,3 °C 85 % 1016,6 hPa 0,0 l/m² 0 min 0 W/m² 3,2 km/h (1 Bft) 100,00 %
21.03.2026 20:52 7,6 °C 6,1 °C 3,3 °C 85 % 1016,6 hPa 0,0 l/m² 0 min 0 W/m² 9,7 km/h (2 Bft) 97,87 %
21.03.2026 20:54 7,6 °C 6,1 °C 3,3 °C 85 % 1016,6 hPa 0,0 l/m² 0 min 0 W/m² 6,4 km/h (2 Bft) 100,00 %
21.03.2026 20:56 7,5 °C 6,1 °C 2,8 °C 85 % 1016,6 hPa 0,0 l/m² 0 min 0 W/m² 12,9 km/h (3 Bft) 100,00 %
21.03.2026 20:58 7,4 °C 6,1 °C 2,8 °C 86 % 1016,6 hPa 0,0 l/m² 0 min 0 W/m² 6,4 km/h (2 Bft) 100,00 %
21.03.2026 21:00 7,4 °C 6,1 °C 2,8 °C 86 % 1016,7 hPa 0,0 l/m² 0 min 0 W/m² 9,7 km/h (2 Bft) 97,87 %
21.03.2026 21:02 7,4 °C 6,1 °C 2,8 °C 86 % 1016,7 hPa 0,0 l/m² 0 min 0 W/m² 3,2 km/h (1 Bft) 100,00 %
21.03.2026 21:04 7,3 °C 6,1 °C 2,8 °C 86 % 1016,6 hPa 0,0 l/m² 0 min 0 W/m² 3,2 km/h (1 Bft) 97,96 %
21.03.2026 21:06 7,3 °C 6,1 °C 2,8 °C 86 % 1016,6 hPa 0,0 l/m² 0 min 0 W/m² 6,4 km/h (2 Bft) 97,83 %
21.03.2026 21:08 7,3 °C 6,1 °C 2,8 °C 86 % 1016,6 hPa 0,0 l/m² 0 min 0 W/m² 6,4 km/h (2 Bft) 100,00 %
21.03.2026 21:10 7,2 °C 6,1 °C 2,8 °C 86 % 1016,6 hPa 0,0 l/m² 0 min 0 W/m² 9,7 km/h (2 Bft) 97,87 %
21.03.2026 21:12 7,2 °C 6,1 °C 2,8 °C 86 % 1016,7 hPa 0,0 l/m² 0 min 0 W/m² 6,4 km/h (2 Bft) 100,00 %
21.03.2026 21:14 7,2 °C 6,1 °C 2,8 °C 86 % 1016,7 hPa 0,0 l/m² 0 min 0 W/m² 9,7 km/h (2 Bft) 97,87 %
21.03.2026 21:16 7,1 °C 6,1 °C 2,8 °C 86 % 1016,6 hPa 0,0 l/m² 0 min 0 W/m² 6,4 km/h (2 Bft) 97,87 %
21.03.2026 21:18 7,1 °C 6,1 °C 2,8 °C 87 % 1016,7 hPa 0,0 l/m² 0 min 0 W/m² 3,2 km/h (1 Bft) 42,86 %
21.03.2026 21:20 7,1 °C 5,6 °C 2,8 °C 87 % 1016,6 hPa 0,0 l/m² 0 min 0 W/m² 6,4 km/h (2 Bft) 100,00 %
21.03.2026 21:22 7,0 °C 5,6 °C 2,8 °C 87 % 1016,6 hPa 0,0 l/m² 0 min 0 W/m² 3,2 km/h (1 Bft) 100,00 %
21.03.2026 21:24 6,9 °C 5,6 °C 2,8 °C 87 % 1016,6 hPa 0,0 l/m² 0 min 0 W/m² 6,4 km/h (2 Bft) 100,00 %
21.03.2026 21:26 6,9 °C 5,6 °C 2,2 °C 87 % 1016,6 hPa 0,0 l/m² 0 min 0 W/m² 6,4 km/h (2 Bft) 100,00 %
21.03.2026 21:28 6,9 °C 5,6 °C 2,2 °C 87 % 1016,6 hPa 0,0 l/m² 0 min 0 W/m² 6,4 km/h (2 Bft) 97,87 %
21.03.2026 21:30 6,9 °C 5,6 °C 2,2 °C 87 % 1016,6 hPa 0,0 l/m² 0 min 0 W/m² 12,9 km/h (3 Bft) 100,00 %
21.03.2026 21:32 6,8 °C 5,6 °C 2,2 °C 87 % 1016,6 hPa 0,0 l/m² 0 min 0 W/m² 3,2 km/h (1 Bft) 100,00 %
21.03.2026 21:34 6,8 °C 5,6 °C 2,2 °C 87 % 1016,5 hPa 0,0 l/m² 0 min 0 W/m² 9,7 km/h (2 Bft) 97,87 %
21.03.2026 21:36 6,8 °C 5,6 °C 2,2 °C 88 % 1016,6 hPa 0,0 l/m² 0 min 0 W/m² 16,1 km/h (3 Bft) 97,87 %
21.03.2026 21:38 6,7 °C 5,6 °C 2,2 °C 88 % 1016,6 hPa 0,0 l/m² 0 min 0 W/m² 12,9 km/h (3 Bft) 95,74 %
21.03.2026 21:40 6,7 °C 5,6 °C 2,2 °C 88 % 1016,6 hPa 0,0 l/m² 0 min 0 W/m² 6,4 km/h (2 Bft) 95,74 %
21.03.2026 21:42 6,7 °C 5,6 °C 2,2 °C 88 % 1016,6 hPa 0,0 l/m² 0 min 0 W/m² 6,4 km/h (2 Bft) 95,65 %
21.03.2026 21:44 6,7 °C 5,6 °C 2,2 °C 88 % 1016,6 hPa 0,0 l/m² 0 min 0 W/m² 6,4 km/h (2 Bft) 95,74 %
21.03.2026 21:46 6,6 °C 5,6 °C 2,2 °C 88 % 1016,6 hPa 0,0 l/m² 0 min 0 W/m² 6,4 km/h (2 Bft) 95,74 %
21.03.2026 21:48 6,6 °C 5,6 °C 2,2 °C 88 % 1016,6 hPa 0,0 l/m² 0 min 0 W/m² 3,2 km/h (1 Bft) 93,62 %
21.03.2026 21:50 6,6 °C 5,6 °C 2,2 °C 88 % 1016,6 hPa 0,0 l/m² 0 min 0 W/m² 0,0 km/h (0 Bft) 93,62 %
21.03.2026 21:52 6,6 °C 5,6 °C 2,2 °C 88 % 1016,6 hPa 0,0 l/m² 0 min 0 W/m² 3,2 km/h (1 Bft) 95,74 %
21.03.2026 21:54 6,6 °C 5,6 °C 2,2 °C 88 % 1016,6 hPa 0,0 l/m² 0 min 0 W/m² 6,4 km/h (2 Bft) 95,65 %
21.03.2026 21:56 6,5 °C 5,6 °C 2,2 °C 89 % 1016,6 hPa 0,0 l/m² 0 min 0 W/m² 6,4 km/h (2 Bft) 93,62 %
21.03.2026 21:58 6,5 °C 5,6 °C 2,2 °C 88 % 1016,6 hPa 0,0 l/m² 0 min 0 W/m² 6,4 km/h (2 Bft) 93,62 %
21.03.2026 22:00 6,5 °C 5,6 °C 2,2 °C 89 % 1016,6 hPa 0,0 l/m² 0 min 0 W/m² 3,2 km/h (1 Bft) 97,87 %
21.03.2026 22:02 6,5 °C 5,6 °C 2,2 °C 89 % 1016,6 hPa 0,0 l/m² 0 min 0 W/m² 6,4 km/h (2 Bft) 97,87 %
21.03.2026 22:04 6,5 °C 5,6 °C 2,2 °C 89 % 1016,6 hPa 0,0 l/m² 0 min 0 W/m² 3,2 km/h (1 Bft) 97,92 %
21.03.2026 22:06 6,5 °C 5,6 °C 2,2 °C 89 % 1016,6 hPa 0,0 l/m² 0 min 0 W/m² 6,4 km/h (2 Bft) 97,87 %
21.03.2026 22:08 6,5 °C 5,6 °C 2,2 °C 89 % 1016,6 hPa 0,0 l/m² 0 min 0 W/m² 3,2 km/h (1 Bft) 97,87 %
21.03.2026 22:10 6,5 °C 5,6 °C 2,2 °C 89 % 1016,6 hPa 0,0 l/m² 0 min 0 W/m² 3,2 km/h (1 Bft) 100,00 %
21.03.2026 22:12 6,5 °C 5,6 °C 2,2 °C 89 % 1016,6 hPa 0,0 l/m² 0 min 0 W/m² 3,2 km/h (1 Bft) 97,87 %
21.03.2026 22:14 6,5 °C 5,6 °C 2,2 °C 89 % 1016,7 hPa 0,0 l/m² 0 min 0 W/m² 6,4 km/h (2 Bft) 95,74 %
21.03.2026 22:16 6,5 °C 5,6 °C 2,2 °C 90 % 1016,7 hPa 0,0 l/m² 0 min 0 W/m² 6,4 km/h (2 Bft) 95,65 %
21.03.2026 22:18 6,5 °C 5,6 °C 2,2 °C 90 % 1016,7 hPa 0,0 l/m² 0 min 0 W/m² 3,2 km/h (1 Bft) 95,74 %
21.03.2026 22:20 6,5 °C 5,6 °C 2,2 °C 90 % 1016,7 hPa 0,0 l/m² 0 min 0 W/m² 3,2 km/h (1 Bft) 97,87 %
21.03.2026 22:22 6,4 °C 5,6 °C 2,2 °C 90 % 1016,7 hPa 0,0 l/m² 0 min 0 W/m² 3,2 km/h (1 Bft) 95,74 %
21.03.2026 22:24 6,4 °C 5,6 °C 2,2 °C 90 % 1016,7 hPa 0,0 l/m² 0 min 0 W/m² 3,2 km/h (1 Bft) 57,45 %
21.03.2026 22:26 6,4 °C 5,6 °C 2,2 °C 90 % 1016,7 hPa 0,0 l/m² 0 min 0 W/m² 3,2 km/h (1 Bft) 97,87 %
21.03.2026 22:28 6,4 °C 5,6 °C 2,2 °C 90 % 1016,7 hPa 0,0 l/m² 0 min 0 W/m² 0,0 km/h (0 Bft) 97,83 %
21.03.2026 22:30 6,4 °C 5,0 °C 2,2 °C 90 % 1016,7 hPa 0,0 l/m² 0 min 0 W/m² 3,2 km/h (1 Bft) 97,87 %
21.03.2026 22:32 6,3 °C 5,0 °C 2,2 °C 90 % 1016,7 hPa 0,0 l/m² 0 min 0 W/m² 0,0 km/h (0 Bft) 95,74 %
21.03.2026 22:34 6,3 °C 5,0 °C 2,2 °C 90 % 1016,7 hPa 0,0 l/m² 0 min 0 W/m² 6,4 km/h (2 Bft) 95,74 %
21.03.2026 22:36 6,3 °C 5,0 °C 1,7 °C 89 % 1016,7 hPa 0,0 l/m² 0 min 0 W/m² 6,4 km/h (2 Bft) 97,87 %
21.03.2026 22:38 6,3 °C 5,0 °C 1,7 °C 89 % 1016,7 hPa 0,0 l/m² 0 min 0 W/m² 3,2 km/h (1 Bft) 97,87 %
21.03.2026 22:40 6,3 °C 5,0 °C 1,7 °C 90 % 1016,7 hPa 0,0 l/m² 0 min 0 W/m² 0,0 km/h (0 Bft) 97,83 %
21.03.2026 22:42 6,2 °C 5,0 °C 1,7 °C 90 % 1016,7 hPa 0,0 l/m² 0 min 0 W/m² 3,2 km/h (1 Bft) 95,74 %
21.03.2026 22:44 6,2 °C 5,0 °C 1,7 °C 90 % 1016,7 hPa 0,0 l/m² 0 min 0 W/m² 3,2 km/h (1 Bft) 97,87 %
21.03.2026 22:46 6,2 °C 5,0 °C 1,7 °C 90 % 1016,7 hPa 0,0 l/m² 0 min 0 W/m² 3,2 km/h (1 Bft) 97,87 %
21.03.2026 22:48 6,2 °C 5,0 °C 1,7 °C 90 % 1016,7 hPa 0,0 l/m² 0 min 0 W/m² 9,7 km/h (2 Bft) 95,74 %
21.03.2026 22:50 6,1 °C 5,0 °C 1,7 °C 90 % 1016,6 hPa 0,0 l/m² 0 min 0 W/m² 6,4 km/h (2 Bft) 97,87 %
21.03.2026 22:52 6,1 °C 5,0 °C 1,7 °C 90 % 1016,7 hPa 0,0 l/m² 0 min 0 W/m² 3,2 km/h (1 Bft) 97,83 %
21.03.2026 22:54 6,1 °C 5,0 °C 1,7 °C 90 % 1016,7 hPa 0,0 l/m² 0 min 0 W/m² 6,4 km/h (2 Bft) 95,74 %
21.03.2026 22:56 6,1 °C 5,0 °C 1,7 °C 90 % 1016,6 hPa 0,0 l/m² 0 min 0 W/m² 3,2 km/h (1 Bft) 97,87 %
21.03.2026 22:58 6,1 °C 5,0 °C 1,7 °C 90 % 1016,6 hPa 0,0 l/m² 0 min 0 W/m² 3,2 km/h (1 Bft) 97,87 %
21.03.2026 23:00 6,0 °C 5,0 °C 1,7 °C 90 % 1016,6 hPa 0,0 l/m² 0 min 0 W/m² 3,2 km/h (1 Bft) 97,87 %
21.03.2026 23:02 6,0 °C 5,0 °C 1,7 °C 90 % 1016,6 hPa 0,0 l/m² 0 min 0 W/m² 3,2 km/h (1 Bft) 97,83 %
21.03.2026 23:04 5,9 °C 4,4 °C 1,7 °C 90 % 1016,7 hPa 0,0 l/m² 0 min 0 W/m² 6,4 km/h (2 Bft) 97,92 %
21.03.2026 23:06 5,9 °C 5,0 °C 1,7 °C 90 % 1016,6 hPa 0,0 l/m² 0 min 0 W/m² 9,7 km/h (2 Bft) 93,62 %
21.03.2026 23:08 5,9 °C 5,0 °C 1,7 °C 90 % 1016,6 hPa 0,0 l/m² 0 min 0 W/m² 3,2 km/h (1 Bft) 97,87 %
21.03.2026 23:10 5,9 °C 5,0 °C 1,7 °C 90 % 1016,6 hPa 0,0 l/m² 0 min 0 W/m² 3,2 km/h (1 Bft) 95,74 %
21.03.2026 23:12 5,9 °C 5,0 °C 1,7 °C 90 % 1016,5 hPa 0,0 l/m² 0 min 0 W/m² 0,0 km/h (0 Bft) 95,74 %
21.03.2026 23:14 5,9 °C 4,4 °C 1,7 °C 90 % 1016,5 hPa 0,0 l/m² 0 min 0 W/m² 3,2 km/h (1 Bft) 95,65 %
21.03.2026 23:16 5,9 °C 4,4 °C 1,7 °C 90 % 1016,5 hPa 0,0 l/m² 0 min 0 W/m² 3,2 km/h (1 Bft) 97,87 %
21.03.2026 23:18 5,9 °C 4,4 °C 1,7 °C 90 % 1016,5 hPa 0,0 l/m² 0 min 0 W/m² 3,2 km/h (1 Bft) 95,74 %
21.03.2026 23:20 5,8 °C 4,4 °C 1,7 °C 90 % 1016,5 hPa 0,0 l/m² 0 min 0 W/m² 3,2 km/h (1 Bft) 95,74 %
21.03.2026 23:22 5,8 °C 4,4 °C 1,1 °C 90 % 1016,6 hPa 0,0 l/m² 0 min 0 W/m² 3,2 km/h (1 Bft) 97,87 %
21.03.2026 23:24 5,8 °C 4,4 °C 1,1 °C 90 % 1016,5 hPa 0,0 l/m² 0 min 0 W/m² 3,2 km/h (1 Bft) 95,74 %
21.03.2026 23:26 5,8 °C 4,4 °C 1,7 °C 91 % 1016,6 hPa 0,0 l/m² 0 min 0 W/m² 3,2 km/h (1 Bft) 47,37 %
21.03.2026 23:28 5,8 °C 4,4 °C 1,7 °C 90 % 1016,6 hPa 0,0 l/m² 0 min 0 W/m² 3,2 km/h (1 Bft) 93,75 %
21.03.2026 23:30 5,8 °C 4,4 °C 1,7 °C 90 % 1016,6 hPa 0,0 l/m² 0 min 0 W/m² 3,2 km/h (1 Bft) 93,62 %
21.03.2026 23:32 5,8 °C 4,4 °C 1,7 °C 91 % 1016,6 hPa 0,0 l/m² 0 min 0 W/m² 3,2 km/h (1 Bft) 93,62 %
21.03.2026 23:34 5,8 °C 4,4 °C 1,7 °C 91 % 1016,6 hPa 0,0 l/m² 0 min 0 W/m² 3,2 km/h (1 Bft) 93,62 %
21.03.2026 23:36 5,8 °C 4,4 °C 1,7 °C 91 % 1016,6 hPa 0,0 l/m² 0 min 0 W/m² 3,2 km/h (1 Bft) 95,74 %
21.03.2026 23:38 5,8 °C 5,0 °C 1,7 °C 91 % 1016,6 hPa 0,0 l/m² 0 min 0 W/m² 0,0 km/h (0 Bft) 95,65 %
21.03.2026 23:40 5,8 °C 4,4 °C 1,7 °C 91 % 1016,6 hPa 0,0 l/m² 0 min 0 W/m² 3,2 km/h (1 Bft) 97,87 %
21.03.2026 23:42 5,8 °C 4,4 °C 1,7 °C 91 % 1016,6 hPa 0,0 l/m² 0 min 0 W/m² 3,2 km/h (1 Bft) 97,87 %
21.03.2026 23:44 5,8 °C 4,4 °C 1,7 °C 91 % 1016,6 hPa 0,0 l/m² 0 min 0 W/m² 3,2 km/h (1 Bft) 97,87 %
21.03.2026 23:46 5,8 °C 4,4 °C 1,7 °C 91 % 1016,6 hPa 0,0 l/m² 0 min 0 W/m² 6,4 km/h (2 Bft) 97,87 %
21.03.2026 23:48 5,8 °C 4,4 °C 1,7 °C 91 % 1016,6 hPa 0,0 l/m² 0 min 0 W/m² 3,2 km/h (1 Bft) 100,00 %
21.03.2026 23:50 5,8 °C 4,4 °C 1,7 °C 91 % 1016,6 hPa 0,0 l/m² 0 min 0 W/m² 3,2 km/h (1 Bft) 97,83 %
21.03.2026 23:52 5,7 °C 4,4 °C 1,7 °C 91 % 1016,5 hPa 0,0 l/m² 0 min 0 W/m² 3,2 km/h (1 Bft) 95,74 %
21.03.2026 23:54 5,7 °C 4,4 °C 1,7 °C 91 % 1016,5 hPa 0,0 l/m² 0 min 0 W/m² 3,2 km/h (1 Bft) 97,87 %
21.03.2026 23:56 5,7 °C 4,4 °C 1,7 °C 91 % 1016,5 hPa 0,0 l/m² 0 min 0 W/m² 3,2 km/h (1 Bft) 97,87 %
21.03.2026 23:58 5,7 °C 4,4 °C 1,7 °C 91 % 1016,5 hPa 0,0 l/m² 0 min 0 W/m² 3,2 km/h (1 Bft) 97,87 %
_ Min-Zeit 06:46 06:38 04:34 14:18 16:22 - - - 01:08 04:30
Minimum _ 4,2 °C 2,8 °C 0,0 °C 52 % 1015,7 hPa - - - 0,0 km/h (0 Bft) 37,50 %
_ Max-Zeit 14:46 11:28 11:50 07:48 00:00 00:00 12:35 12:40 13:02 00:18
Maximum _ 17,2 °C 27,2 °C 18,3 °C 91 % 1019,1 hPa 0,0 l/m² 5 min 675 W/m² 38,6 km/h
O (5 Bft)
100,00 %
Durchschnitt _ 9,5 °C 11,3 °C 5,5 °C 76 % 1017,6 hPa #0,0 l/m² #9:06 h 353 W/m² 8,7 km/h (2 Bft) 97,10 %
© 2026 W. Hausmann